<?xml version="1.0" encoding="UTF-8" standalone="no" ?>
<gpx xmlns="http://www.topografix.com/GPX/1/1" xmlns:xsi="http://www.w3.org/2001/XMLSchema-instance" xsi:schemaLocation="http://www.topografix.com/GPX/1/1 http://www.topografix.com/GPX/1/1/gpx.xsd" version="1.1" creator="VisuGPX - https://www.visugpx.com">
  <metadata>
    <name>Octon / Château de Malavieille</name>
    <desc><![CDATA[Au départ du parking randonneurs d'Octon, une superbe randonnée de difficulté moyenne, par les ruines du château de Malavieille, avec de superbes panoramas sur toute la longueur du circuit.]]></desc>
  </metadata>
  <wpt lat="43.65386" lon="3.30372">
    <ele>188</ele>
    <name><![CDATA[Point de passage 1]]></name>
  </wpt>
  <wpt lat="43.65394" lon="3.30386">
    <ele>188</ele>
    <name><![CDATA[Point de passage 2]]></name>
  </wpt>
  <trk>
    <name><![CDATA[Randonnée du 26/03/2026 à 08:18]]></name>
    <extensions>
      <line xmlns="http://www.topografix.com/GPX/gpx_style/0/2">
        <color>0000FF</color>
        <width>4</width>
      </line>
    </extensions>
    <trkseg>
      <trkpt lat="43.65386" lon="3.30372">
        <ele>188</ele>
        <time>2026-03-26T07:18:38.000Z</time>
      </trkpt>
      <trkpt lat="43.65388" lon="3.30369">
        <ele>188</ele>
        <time>2026-03-26T07:18:41.000Z</time>
      </trkpt>
      <trkpt lat="43.65396" lon="3.30351">
        <ele>190</ele>
        <time>2026-03-26T07:20:04.000Z</time>
      </trkpt>
      <trkpt lat="43.65411" lon="3.30333">
        <ele>191</ele>
        <time>2026-03-26T07:20:22.000Z</time>
      </trkpt>
      <trkpt lat="43.6542" lon="3.30313">
        <ele>193</ele>
        <time>2026-03-26T07:20:36.000Z</time>
      </trkpt>
      <trkpt lat="43.6541" lon="3.30296">
        <ele>192</ele>
        <time>2026-03-26T07:20:59.000Z</time>
      </trkpt>
      <trkpt lat="43.65391" lon="3.30289">
        <ele>191</ele>
        <time>2026-03-26T07:21:13.000Z</time>
      </trkpt>
      <trkpt lat="43.65371" lon="3.30286">
        <ele>189</ele>
        <time>2026-03-26T07:21:29.000Z</time>
      </trkpt>
      <trkpt lat="43.65352" lon="3.30285">
        <ele>187</ele>
        <time>2026-03-26T07:22:05.000Z</time>
      </trkpt>
      <trkpt lat="43.65335" lon="3.30273">
        <ele>188</ele>
        <time>2026-03-26T07:22:17.000Z</time>
      </trkpt>
      <trkpt lat="43.65319" lon="3.30264">
        <ele>188</ele>
        <time>2026-03-26T07:22:30.000Z</time>
      </trkpt>
      <trkpt lat="43.653" lon="3.30261">
        <ele>189</ele>
        <time>2026-03-26T07:22:44.000Z</time>
      </trkpt>
      <trkpt lat="43.65282" lon="3.30261">
        <ele>190</ele>
        <time>2026-03-26T07:22:58.000Z</time>
      </trkpt>
      <trkpt lat="43.65263" lon="3.30267">
        <ele>189</ele>
        <time>2026-03-26T07:23:12.000Z</time>
      </trkpt>
      <trkpt lat="43.65244" lon="3.30274">
        <ele>189</ele>
        <time>2026-03-26T07:23:28.000Z</time>
      </trkpt>
      <trkpt lat="43.65226" lon="3.3028">
        <ele>188</ele>
        <time>2026-03-26T07:23:41.000Z</time>
      </trkpt>
      <trkpt lat="43.65207" lon="3.30285">
        <ele>188</ele>
        <time>2026-03-26T07:23:57.000Z</time>
      </trkpt>
      <trkpt lat="43.65187" lon="3.3029">
        <ele>187</ele>
        <time>2026-03-26T07:24:13.000Z</time>
      </trkpt>
      <trkpt lat="43.65169" lon="3.30298">
        <ele>187</ele>
        <time>2026-03-26T07:24:26.000Z</time>
      </trkpt>
      <trkpt lat="43.65152" lon="3.30311">
        <ele>186</ele>
        <time>2026-03-26T07:24:40.000Z</time>
      </trkpt>
      <trkpt lat="43.65136" lon="3.3032">
        <ele>186</ele>
        <time>2026-03-26T07:24:53.000Z</time>
      </trkpt>
      <trkpt lat="43.65119" lon="3.30312">
        <ele>185</ele>
        <time>2026-03-26T07:25:09.000Z</time>
      </trkpt>
      <trkpt lat="43.65106" lon="3.30294">
        <ele>185</ele>
        <time>2026-03-26T07:25:24.000Z</time>
      </trkpt>
      <trkpt lat="43.65094" lon="3.30276">
        <ele>186</ele>
        <time>2026-03-26T07:25:40.000Z</time>
      </trkpt>
      <trkpt lat="43.65076" lon="3.30267">
        <ele>187</ele>
        <time>2026-03-26T07:26:00.000Z</time>
      </trkpt>
      <trkpt lat="43.65058" lon="3.30256">
        <ele>188</ele>
        <time>2026-03-26T07:26:14.000Z</time>
      </trkpt>
      <trkpt lat="43.65041" lon="3.30245">
        <ele>189</ele>
        <time>2026-03-26T07:26:28.000Z</time>
      </trkpt>
      <trkpt lat="43.65024" lon="3.30238">
        <ele>189</ele>
        <time>2026-03-26T07:26:41.000Z</time>
      </trkpt>
      <trkpt lat="43.65005" lon="3.30236">
        <ele>187</ele>
        <time>2026-03-26T07:26:56.000Z</time>
      </trkpt>
      <trkpt lat="43.64987" lon="3.30235">
        <ele>191</ele>
        <time>2026-03-26T07:27:09.000Z</time>
      </trkpt>
      <trkpt lat="43.64971" lon="3.30227">
        <ele>192</ele>
        <time>2026-03-26T07:27:23.000Z</time>
      </trkpt>
      <trkpt lat="43.64956" lon="3.30209">
        <ele>193</ele>
        <time>2026-03-26T07:27:38.000Z</time>
      </trkpt>
      <trkpt lat="43.64944" lon="3.30189">
        <ele>196</ele>
        <time>2026-03-26T07:27:53.000Z</time>
      </trkpt>
      <trkpt lat="43.64931" lon="3.30169">
        <ele>196</ele>
        <time>2026-03-26T07:28:08.000Z</time>
      </trkpt>
      <trkpt lat="43.64917" lon="3.3015">
        <ele>197</ele>
        <time>2026-03-26T07:28:23.000Z</time>
      </trkpt>
      <trkpt lat="43.64902" lon="3.30132">
        <ele>194</ele>
        <time>2026-03-26T07:28:44.000Z</time>
      </trkpt>
      <trkpt lat="43.64886" lon="3.30118">
        <ele>199</ele>
        <time>2026-03-26T07:28:58.000Z</time>
      </trkpt>
      <trkpt lat="43.64868" lon="3.30114">
        <ele>200</ele>
        <time>2026-03-26T07:29:12.000Z</time>
      </trkpt>
      <trkpt lat="43.6485" lon="3.3011">
        <ele>201</ele>
        <time>2026-03-26T07:29:27.000Z</time>
      </trkpt>
      <trkpt lat="43.64832" lon="3.301">
        <ele>202</ele>
        <time>2026-03-26T07:29:43.000Z</time>
      </trkpt>
      <trkpt lat="43.64817" lon="3.30083">
        <ele>204</ele>
        <time>2026-03-26T07:30:00.000Z</time>
      </trkpt>
      <trkpt lat="43.64804" lon="3.30064">
        <ele>205</ele>
        <time>2026-03-26T07:30:14.000Z</time>
      </trkpt>
      <trkpt lat="43.64792" lon="3.30046">
        <ele>205</ele>
        <time>2026-03-26T07:30:29.000Z</time>
      </trkpt>
      <trkpt lat="43.64776" lon="3.30033">
        <ele>207</ele>
        <time>2026-03-26T07:30:45.000Z</time>
      </trkpt>
      <trkpt lat="43.64758" lon="3.30032">
        <ele>208</ele>
        <time>2026-03-26T07:31:00.000Z</time>
      </trkpt>
      <trkpt lat="43.6474" lon="3.3003">
        <ele>209</ele>
        <time>2026-03-26T07:31:14.000Z</time>
      </trkpt>
      <trkpt lat="43.64722" lon="3.30025">
        <ele>210</ele>
        <time>2026-03-26T07:31:30.000Z</time>
      </trkpt>
      <trkpt lat="43.64706" lon="3.30012">
        <ele>212</ele>
        <time>2026-03-26T07:31:45.000Z</time>
      </trkpt>
      <trkpt lat="43.64695" lon="3.29993">
        <ele>213</ele>
        <time>2026-03-26T07:32:00.000Z</time>
      </trkpt>
      <trkpt lat="43.64687" lon="3.29968">
        <ele>214</ele>
        <time>2026-03-26T07:32:19.000Z</time>
      </trkpt>
      <trkpt lat="43.64678" lon="3.29944">
        <ele>215</ele>
        <time>2026-03-26T07:32:35.000Z</time>
      </trkpt>
      <trkpt lat="43.64669" lon="3.29922">
        <ele>216</ele>
        <time>2026-03-26T07:32:51.000Z</time>
      </trkpt>
      <trkpt lat="43.64661" lon="3.29899">
        <ele>218</ele>
        <time>2026-03-26T07:33:06.000Z</time>
      </trkpt>
      <trkpt lat="43.64652" lon="3.29877">
        <ele>219</ele>
        <time>2026-03-26T07:33:21.000Z</time>
      </trkpt>
      <trkpt lat="43.6464" lon="3.29858">
        <ele>216</ele>
        <time>2026-03-26T07:33:36.000Z</time>
      </trkpt>
      <trkpt lat="43.64624" lon="3.29846">
        <ele>217</ele>
        <time>2026-03-26T07:33:51.000Z</time>
      </trkpt>
      <trkpt lat="43.64606" lon="3.29835">
        <ele>205</ele>
        <time>2026-03-26T07:34:07.000Z</time>
      </trkpt>
      <trkpt lat="43.64588" lon="3.29828">
        <ele>218</ele>
        <time>2026-03-26T07:34:28.000Z</time>
      </trkpt>
      <trkpt lat="43.6457" lon="3.29821">
        <ele>216</ele>
        <time>2026-03-26T07:34:43.000Z</time>
      </trkpt>
      <trkpt lat="43.64555" lon="3.29807">
        <ele>219</ele>
        <time>2026-03-26T07:34:58.000Z</time>
      </trkpt>
      <trkpt lat="43.64541" lon="3.29791">
        <ele>222</ele>
        <time>2026-03-26T07:35:13.000Z</time>
      </trkpt>
      <trkpt lat="43.64531" lon="3.2977">
        <ele>224</ele>
        <time>2026-03-26T07:35:25.000Z</time>
      </trkpt>
      <trkpt lat="43.64521" lon="3.29747">
        <ele>223</ele>
        <time>2026-03-26T07:35:39.000Z</time>
      </trkpt>
      <trkpt lat="43.64509" lon="3.29727">
        <ele>228</ele>
        <time>2026-03-26T07:35:55.000Z</time>
      </trkpt>
      <trkpt lat="43.64497" lon="3.29706">
        <ele>229</ele>
        <time>2026-03-26T07:36:10.000Z</time>
      </trkpt>
      <trkpt lat="43.64488" lon="3.29684">
        <ele>230</ele>
        <time>2026-03-26T07:36:26.000Z</time>
      </trkpt>
      <trkpt lat="43.64478" lon="3.29662">
        <ele>231</ele>
        <time>2026-03-26T07:36:43.000Z</time>
      </trkpt>
      <trkpt lat="43.64466" lon="3.29642">
        <ele>230</ele>
        <time>2026-03-26T07:38:08.000Z</time>
      </trkpt>
      <trkpt lat="43.64452" lon="3.29624">
        <ele>231</ele>
        <time>2026-03-26T07:38:21.000Z</time>
      </trkpt>
      <trkpt lat="43.64435" lon="3.29616">
        <ele>230</ele>
        <time>2026-03-26T07:38:35.000Z</time>
      </trkpt>
      <trkpt lat="43.64415" lon="3.29611">
        <ele>229</ele>
        <time>2026-03-26T07:38:49.000Z</time>
      </trkpt>
      <trkpt lat="43.64398" lon="3.29605">
        <ele>227</ele>
        <time>2026-03-26T07:39:03.000Z</time>
      </trkpt>
      <trkpt lat="43.64381" lon="3.29599">
        <ele>225</ele>
        <time>2026-03-26T07:39:16.000Z</time>
      </trkpt>
      <trkpt lat="43.64363" lon="3.29593">
        <ele>222</ele>
        <time>2026-03-26T07:39:31.000Z</time>
      </trkpt>
      <trkpt lat="43.64345" lon="3.29585">
        <ele>221</ele>
        <time>2026-03-26T07:39:46.000Z</time>
      </trkpt>
      <trkpt lat="43.64327" lon="3.2958">
        <ele>220</ele>
        <time>2026-03-26T07:40:00.000Z</time>
      </trkpt>
      <trkpt lat="43.64307" lon="3.29576">
        <ele>220</ele>
        <time>2026-03-26T07:40:14.000Z</time>
      </trkpt>
      <trkpt lat="43.64288" lon="3.29572">
        <ele>220</ele>
        <time>2026-03-26T07:40:29.000Z</time>
      </trkpt>
      <trkpt lat="43.64269" lon="3.29561">
        <ele>221</ele>
        <time>2026-03-26T07:40:47.000Z</time>
      </trkpt>
      <trkpt lat="43.64251" lon="3.29551">
        <ele>221</ele>
        <time>2026-03-26T07:41:02.000Z</time>
      </trkpt>
      <trkpt lat="43.64234" lon="3.29537">
        <ele>219</ele>
        <time>2026-03-26T07:41:17.000Z</time>
      </trkpt>
      <trkpt lat="43.6422" lon="3.29521">
        <ele>219</ele>
        <time>2026-03-26T07:41:31.000Z</time>
      </trkpt>
      <trkpt lat="43.64205" lon="3.29506">
        <ele>219</ele>
        <time>2026-03-26T07:41:44.000Z</time>
      </trkpt>
      <trkpt lat="43.64192" lon="3.29487">
        <ele>219</ele>
        <time>2026-03-26T07:41:59.000Z</time>
      </trkpt>
      <trkpt lat="43.64184" lon="3.29465">
        <ele>218</ele>
        <time>2026-03-26T07:42:13.000Z</time>
      </trkpt>
      <trkpt lat="43.64178" lon="3.2944">
        <ele>218</ele>
        <time>2026-03-26T07:42:29.000Z</time>
      </trkpt>
      <trkpt lat="43.64174" lon="3.29414">
        <ele>220</ele>
        <time>2026-03-26T07:42:45.000Z</time>
      </trkpt>
      <trkpt lat="43.64171" lon="3.29388">
        <ele>222</ele>
        <time>2026-03-26T07:43:01.000Z</time>
      </trkpt>
      <trkpt lat="43.64171" lon="3.29362">
        <ele>222</ele>
        <time>2026-03-26T07:43:17.000Z</time>
      </trkpt>
      <trkpt lat="43.64169" lon="3.29336">
        <ele>224</ele>
        <time>2026-03-26T07:43:33.000Z</time>
      </trkpt>
      <trkpt lat="43.64167" lon="3.29309">
        <ele>226</ele>
        <time>2026-03-26T07:43:49.000Z</time>
      </trkpt>
      <trkpt lat="43.64164" lon="3.29282">
        <ele>227</ele>
        <time>2026-03-26T07:44:05.000Z</time>
      </trkpt>
      <trkpt lat="43.64162" lon="3.29255">
        <ele>226</ele>
        <time>2026-03-26T07:44:21.000Z</time>
      </trkpt>
      <trkpt lat="43.64162" lon="3.29228">
        <ele>227</ele>
        <time>2026-03-26T07:44:37.000Z</time>
      </trkpt>
      <trkpt lat="43.64162" lon="3.29203">
        <ele>227</ele>
        <time>2026-03-26T07:44:55.000Z</time>
      </trkpt>
      <trkpt lat="43.64163" lon="3.29177">
        <ele>227</ele>
        <time>2026-03-26T07:45:10.000Z</time>
      </trkpt>
      <trkpt lat="43.64158" lon="3.29152">
        <ele>225</ele>
        <time>2026-03-26T07:45:25.000Z</time>
      </trkpt>
      <trkpt lat="43.64154" lon="3.29128">
        <ele>222</ele>
        <time>2026-03-26T07:45:44.000Z</time>
      </trkpt>
      <trkpt lat="43.64147" lon="3.29104">
        <ele>217</ele>
        <time>2026-03-26T07:46:07.000Z</time>
      </trkpt>
      <trkpt lat="43.64138" lon="3.29081">
        <ele>212</ele>
        <time>2026-03-26T07:46:24.000Z</time>
      </trkpt>
      <trkpt lat="43.64126" lon="3.29059">
        <ele>209</ele>
        <time>2026-03-26T07:46:43.000Z</time>
      </trkpt>
      <trkpt lat="43.64121" lon="3.29035">
        <ele>206</ele>
        <time>2026-03-26T07:47:05.000Z</time>
      </trkpt>
      <trkpt lat="43.64126" lon="3.2901">
        <ele>207</ele>
        <time>2026-03-26T07:47:21.000Z</time>
      </trkpt>
      <trkpt lat="43.64137" lon="3.28991">
        <ele>208</ele>
        <time>2026-03-26T07:47:35.000Z</time>
      </trkpt>
      <trkpt lat="43.6415" lon="3.2897">
        <ele>205</ele>
        <time>2026-03-26T07:47:54.000Z</time>
      </trkpt>
      <trkpt lat="43.64152" lon="3.28949">
        <ele>204</ele>
        <time>2026-03-26T07:48:25.000Z</time>
      </trkpt>
      <trkpt lat="43.64142" lon="3.28938">
        <ele>207</ele>
        <time>2026-03-26T07:48:51.000Z</time>
      </trkpt>
      <trkpt lat="43.64153" lon="3.28923">
        <ele>210</ele>
        <time>2026-03-26T07:51:44.000Z</time>
      </trkpt>
      <trkpt lat="43.6417" lon="3.28912">
        <ele>209</ele>
        <time>2026-03-26T07:51:59.000Z</time>
      </trkpt>
      <trkpt lat="43.64186" lon="3.28901">
        <ele>212</ele>
        <time>2026-03-26T07:52:17.000Z</time>
      </trkpt>
      <trkpt lat="43.64202" lon="3.28887">
        <ele>214</ele>
        <time>2026-03-26T07:52:34.000Z</time>
      </trkpt>
      <trkpt lat="43.64216" lon="3.2887">
        <ele>215</ele>
        <time>2026-03-26T07:52:51.000Z</time>
      </trkpt>
      <trkpt lat="43.64231" lon="3.28854">
        <ele>216</ele>
        <time>2026-03-26T07:53:07.000Z</time>
      </trkpt>
      <trkpt lat="43.64246" lon="3.28839">
        <ele>218</ele>
        <time>2026-03-26T07:53:25.000Z</time>
      </trkpt>
      <trkpt lat="43.6426" lon="3.28823">
        <ele>218</ele>
        <time>2026-03-26T07:53:44.000Z</time>
      </trkpt>
      <trkpt lat="43.6427" lon="3.28801">
        <ele>221</ele>
        <time>2026-03-26T07:54:07.000Z</time>
      </trkpt>
      <trkpt lat="43.6428" lon="3.2878">
        <ele>221</ele>
        <time>2026-03-26T07:54:23.000Z</time>
      </trkpt>
      <trkpt lat="43.64295" lon="3.28778">
        <ele>221</ele>
        <time>2026-03-26T07:54:45.000Z</time>
      </trkpt>
      <trkpt lat="43.64299" lon="3.28799">
        <ele>219</ele>
        <time>2026-03-26T07:55:28.000Z</time>
      </trkpt>
      <trkpt lat="43.64297" lon="3.28818">
        <ele>216</ele>
        <time>2026-03-26T07:57:30.000Z</time>
      </trkpt>
      <trkpt lat="43.64297" lon="3.28798">
        <ele>219</ele>
        <time>2026-03-26T07:59:47.000Z</time>
      </trkpt>
      <trkpt lat="43.64295" lon="3.28771">
        <ele>222</ele>
        <time>2026-03-26T08:00:04.000Z</time>
      </trkpt>
      <trkpt lat="43.64298" lon="3.28747">
        <ele>224</ele>
        <time>2026-03-26T08:00:43.000Z</time>
      </trkpt>
      <trkpt lat="43.64309" lon="3.28727">
        <ele>226</ele>
        <time>2026-03-26T08:01:01.000Z</time>
      </trkpt>
      <trkpt lat="43.64319" lon="3.28706">
        <ele>227</ele>
        <time>2026-03-26T08:01:20.000Z</time>
      </trkpt>
      <trkpt lat="43.64325" lon="3.28683">
        <ele>228</ele>
        <time>2026-03-26T08:01:36.000Z</time>
      </trkpt>
      <trkpt lat="43.64328" lon="3.28658">
        <ele>230</ele>
        <time>2026-03-26T08:01:53.000Z</time>
      </trkpt>
      <trkpt lat="43.64334" lon="3.28634">
        <ele>231</ele>
        <time>2026-03-26T08:02:09.000Z</time>
      </trkpt>
      <trkpt lat="43.64347" lon="3.28617">
        <ele>233</ele>
        <time>2026-03-26T08:02:25.000Z</time>
      </trkpt>
      <trkpt lat="43.64359" lon="3.28598">
        <ele>234</ele>
        <time>2026-03-26T08:02:41.000Z</time>
      </trkpt>
      <trkpt lat="43.64372" lon="3.28582">
        <ele>234</ele>
        <time>2026-03-26T08:02:58.000Z</time>
      </trkpt>
      <trkpt lat="43.64389" lon="3.28576">
        <ele>236</ele>
        <time>2026-03-26T08:03:18.000Z</time>
      </trkpt>
      <trkpt lat="43.64402" lon="3.2856">
        <ele>238</ele>
        <time>2026-03-26T08:03:36.000Z</time>
      </trkpt>
      <trkpt lat="43.64416" lon="3.28544">
        <ele>239</ele>
        <time>2026-03-26T08:03:53.000Z</time>
      </trkpt>
      <trkpt lat="43.64428" lon="3.28527">
        <ele>240</ele>
        <time>2026-03-26T08:04:10.000Z</time>
      </trkpt>
      <trkpt lat="43.64445" lon="3.28518">
        <ele>243</ele>
        <time>2026-03-26T08:04:27.000Z</time>
      </trkpt>
      <trkpt lat="43.6446" lon="3.28502">
        <ele>244</ele>
        <time>2026-03-26T08:04:45.000Z</time>
      </trkpt>
      <trkpt lat="43.64469" lon="3.28481">
        <ele>245</ele>
        <time>2026-03-26T08:05:01.000Z</time>
      </trkpt>
      <trkpt lat="43.6447" lon="3.28456">
        <ele>246</ele>
        <time>2026-03-26T08:05:22.000Z</time>
      </trkpt>
      <trkpt lat="43.64473" lon="3.28431">
        <ele>248</ele>
        <time>2026-03-26T08:05:39.000Z</time>
      </trkpt>
      <trkpt lat="43.64477" lon="3.28405">
        <ele>248</ele>
        <time>2026-03-26T08:06:00.000Z</time>
      </trkpt>
      <trkpt lat="43.64477" lon="3.28381">
        <ele>251</ele>
        <time>2026-03-26T08:06:18.000Z</time>
      </trkpt>
      <trkpt lat="43.64475" lon="3.28355">
        <ele>253</ele>
        <time>2026-03-26T08:06:38.000Z</time>
      </trkpt>
      <trkpt lat="43.64473" lon="3.28328">
        <ele>253</ele>
        <time>2026-03-26T08:06:58.000Z</time>
      </trkpt>
      <trkpt lat="43.64471" lon="3.28301">
        <ele>254</ele>
        <time>2026-03-26T08:07:16.000Z</time>
      </trkpt>
      <trkpt lat="43.64477" lon="3.28281">
        <ele>256</ele>
        <time>2026-03-26T08:07:38.000Z</time>
      </trkpt>
      <trkpt lat="43.64493" lon="3.28283">
        <ele>259</ele>
        <time>2026-03-26T08:07:59.000Z</time>
      </trkpt>
      <trkpt lat="43.64508" lon="3.28298">
        <ele>260</ele>
        <time>2026-03-26T08:08:21.000Z</time>
      </trkpt>
      <trkpt lat="43.64522" lon="3.28316">
        <ele>262</ele>
        <time>2026-03-26T08:08:40.000Z</time>
      </trkpt>
      <trkpt lat="43.64534" lon="3.28334">
        <ele>265</ele>
        <time>2026-03-26T08:08:58.000Z</time>
      </trkpt>
      <trkpt lat="43.6455" lon="3.28346">
        <ele>266</ele>
        <time>2026-03-26T08:09:19.000Z</time>
      </trkpt>
      <trkpt lat="43.64567" lon="3.28353">
        <ele>268</ele>
        <time>2026-03-26T08:09:36.000Z</time>
      </trkpt>
      <trkpt lat="43.64586" lon="3.28355">
        <ele>269</ele>
        <time>2026-03-26T08:09:58.000Z</time>
      </trkpt>
      <trkpt lat="43.64601" lon="3.28363">
        <ele>271</ele>
        <time>2026-03-26T08:10:15.000Z</time>
      </trkpt>
      <trkpt lat="43.64604" lon="3.28345">
        <ele>274</ele>
        <time>2026-03-26T08:10:55.000Z</time>
      </trkpt>
      <trkpt lat="43.64591" lon="3.28331">
        <ele>274</ele>
        <time>2026-03-26T08:16:19.000Z</time>
      </trkpt>
      <trkpt lat="43.64577" lon="3.28315">
        <ele>277</ele>
        <time>2026-03-26T08:16:41.000Z</time>
      </trkpt>
      <trkpt lat="43.64563" lon="3.28297">
        <ele>279</ele>
        <time>2026-03-26T08:16:59.000Z</time>
      </trkpt>
      <trkpt lat="43.64555" lon="3.28275">
        <ele>281</ele>
        <time>2026-03-26T08:17:15.000Z</time>
      </trkpt>
      <trkpt lat="43.64545" lon="3.28252">
        <ele>282</ele>
        <time>2026-03-26T08:17:34.000Z</time>
      </trkpt>
      <trkpt lat="43.64538" lon="3.28228">
        <ele>284</ele>
        <time>2026-03-26T08:17:50.000Z</time>
      </trkpt>
      <trkpt lat="43.64528" lon="3.28205">
        <ele>289</ele>
        <time>2026-03-26T08:18:07.000Z</time>
      </trkpt>
      <trkpt lat="43.64523" lon="3.28179">
        <ele>287</ele>
        <time>2026-03-26T08:18:25.000Z</time>
      </trkpt>
      <trkpt lat="43.64517" lon="3.28157">
        <ele>289</ele>
        <time>2026-03-26T08:18:43.000Z</time>
      </trkpt>
      <trkpt lat="43.64502" lon="3.28141">
        <ele>292</ele>
        <time>2026-03-26T08:19:04.000Z</time>
      </trkpt>
      <trkpt lat="43.64487" lon="3.28125">
        <ele>296</ele>
        <time>2026-03-26T08:19:23.000Z</time>
      </trkpt>
      <trkpt lat="43.64484" lon="3.28107">
        <ele>297</ele>
        <time>2026-03-26T08:19:49.000Z</time>
      </trkpt>
      <trkpt lat="43.64498" lon="3.28114">
        <ele>300</ele>
        <time>2026-03-26T08:20:09.000Z</time>
      </trkpt>
      <trkpt lat="43.64514" lon="3.28124">
        <ele>299</ele>
        <time>2026-03-26T08:20:28.000Z</time>
      </trkpt>
      <trkpt lat="43.64533" lon="3.28133">
        <ele>301</ele>
        <time>2026-03-26T08:20:46.000Z</time>
      </trkpt>
      <trkpt lat="43.64551" lon="3.2814">
        <ele>302</ele>
        <time>2026-03-26T08:21:05.000Z</time>
      </trkpt>
      <trkpt lat="43.64569" lon="3.28148">
        <ele>303</ele>
        <time>2026-03-26T08:21:23.000Z</time>
      </trkpt>
      <trkpt lat="43.64588" lon="3.28155">
        <ele>305</ele>
        <time>2026-03-26T08:21:44.000Z</time>
      </trkpt>
      <trkpt lat="43.64605" lon="3.28165">
        <ele>307</ele>
        <time>2026-03-26T08:22:03.000Z</time>
      </trkpt>
      <trkpt lat="43.64621" lon="3.28179">
        <ele>308</ele>
        <time>2026-03-26T08:22:21.000Z</time>
      </trkpt>
      <trkpt lat="43.64634" lon="3.28197">
        <ele>309</ele>
        <time>2026-03-26T08:22:38.000Z</time>
      </trkpt>
      <trkpt lat="43.64647" lon="3.28214">
        <ele>312</ele>
        <time>2026-03-26T08:22:56.000Z</time>
      </trkpt>
      <trkpt lat="43.64662" lon="3.28228">
        <ele>313</ele>
        <time>2026-03-26T08:23:14.000Z</time>
      </trkpt>
      <trkpt lat="43.64678" lon="3.28242">
        <ele>315</ele>
        <time>2026-03-26T08:23:33.000Z</time>
      </trkpt>
      <trkpt lat="43.64694" lon="3.28252">
        <ele>316</ele>
        <time>2026-03-26T08:23:49.000Z</time>
      </trkpt>
      <trkpt lat="43.64712" lon="3.28258">
        <ele>318</ele>
        <time>2026-03-26T08:24:07.000Z</time>
      </trkpt>
      <trkpt lat="43.64726" lon="3.28256">
        <ele>320</ele>
        <time>2026-03-26T08:24:31.000Z</time>
      </trkpt>
      <trkpt lat="43.64719" lon="3.28238">
        <ele>325</ele>
        <time>2026-03-26T08:28:01.000Z</time>
      </trkpt>
      <trkpt lat="43.64705" lon="3.28221">
        <ele>326</ele>
        <time>2026-03-26T08:28:20.000Z</time>
      </trkpt>
      <trkpt lat="43.64694" lon="3.28201">
        <ele>328</ele>
        <time>2026-03-26T08:28:34.000Z</time>
      </trkpt>
      <trkpt lat="43.64686" lon="3.28179">
        <ele>327</ele>
        <time>2026-03-26T08:28:53.000Z</time>
      </trkpt>
      <trkpt lat="43.64676" lon="3.28157">
        <ele>330</ele>
        <time>2026-03-26T08:29:10.000Z</time>
      </trkpt>
      <trkpt lat="43.64665" lon="3.28137">
        <ele>331</ele>
        <time>2026-03-26T08:29:27.000Z</time>
      </trkpt>
      <trkpt lat="43.64655" lon="3.28116">
        <ele>333</ele>
        <time>2026-03-26T08:29:45.000Z</time>
      </trkpt>
      <trkpt lat="43.64653" lon="3.28089">
        <ele>334</ele>
        <time>2026-03-26T08:30:04.000Z</time>
      </trkpt>
      <trkpt lat="43.64656" lon="3.28064">
        <ele>334</ele>
        <time>2026-03-26T08:30:22.000Z</time>
      </trkpt>
      <trkpt lat="43.64662" lon="3.2804">
        <ele>337</ele>
        <time>2026-03-26T08:30:40.000Z</time>
      </trkpt>
      <trkpt lat="43.64673" lon="3.2802">
        <ele>337</ele>
        <time>2026-03-26T08:30:56.000Z</time>
      </trkpt>
      <trkpt lat="43.64681" lon="3.27997">
        <ele>340</ele>
        <time>2026-03-26T08:31:14.000Z</time>
      </trkpt>
      <trkpt lat="43.64686" lon="3.27972">
        <ele>341</ele>
        <time>2026-03-26T08:31:34.000Z</time>
      </trkpt>
      <trkpt lat="43.64692" lon="3.27947">
        <ele>343</ele>
        <time>2026-03-26T08:31:54.000Z</time>
      </trkpt>
      <trkpt lat="43.64699" lon="3.27923">
        <ele>346</ele>
        <time>2026-03-26T08:32:17.000Z</time>
      </trkpt>
      <trkpt lat="43.64701" lon="3.27896">
        <ele>347</ele>
        <time>2026-03-26T08:35:23.000Z</time>
      </trkpt>
      <trkpt lat="43.64705" lon="3.27872">
        <ele>348</ele>
        <time>2026-03-26T08:35:35.000Z</time>
      </trkpt>
      <trkpt lat="43.64708" lon="3.27846">
        <ele>349</ele>
        <time>2026-03-26T08:35:50.000Z</time>
      </trkpt>
      <trkpt lat="43.64709" lon="3.2782">
        <ele>353</ele>
        <time>2026-03-26T08:36:07.000Z</time>
      </trkpt>
      <trkpt lat="43.64712" lon="3.27794">
        <ele>355</ele>
        <time>2026-03-26T08:36:24.000Z</time>
      </trkpt>
      <trkpt lat="43.64713" lon="3.2777">
        <ele>353</ele>
        <time>2026-03-26T08:36:41.000Z</time>
      </trkpt>
      <trkpt lat="43.64716" lon="3.27746">
        <ele>356</ele>
        <time>2026-03-26T08:36:56.000Z</time>
      </trkpt>
      <trkpt lat="43.64722" lon="3.27723">
        <ele>357</ele>
        <time>2026-03-26T08:37:10.000Z</time>
      </trkpt>
      <trkpt lat="43.64733" lon="3.27704">
        <ele>359</ele>
        <time>2026-03-26T08:37:25.000Z</time>
      </trkpt>
      <trkpt lat="43.64745" lon="3.27684">
        <ele>362</ele>
        <time>2026-03-26T08:37:42.000Z</time>
      </trkpt>
      <trkpt lat="43.64752" lon="3.2766">
        <ele>363</ele>
        <time>2026-03-26T08:38:00.000Z</time>
      </trkpt>
      <trkpt lat="43.64758" lon="3.27634">
        <ele>365</ele>
        <time>2026-03-26T08:38:18.000Z</time>
      </trkpt>
      <trkpt lat="43.64764" lon="3.27609">
        <ele>369</ele>
        <time>2026-03-26T08:38:35.000Z</time>
      </trkpt>
      <trkpt lat="43.64769" lon="3.27586">
        <ele>370</ele>
        <time>2026-03-26T08:38:51.000Z</time>
      </trkpt>
      <trkpt lat="43.64771" lon="3.27561">
        <ele>370</ele>
        <time>2026-03-26T08:39:08.000Z</time>
      </trkpt>
      <trkpt lat="43.64773" lon="3.27536">
        <ele>370</ele>
        <time>2026-03-26T08:39:23.000Z</time>
      </trkpt>
      <trkpt lat="43.64774" lon="3.27511">
        <ele>369</ele>
        <time>2026-03-26T08:39:38.000Z</time>
      </trkpt>
      <trkpt lat="43.64778" lon="3.27485">
        <ele>368</ele>
        <time>2026-03-26T08:39:55.000Z</time>
      </trkpt>
      <trkpt lat="43.64784" lon="3.27459">
        <ele>369</ele>
        <time>2026-03-26T08:40:11.000Z</time>
      </trkpt>
      <trkpt lat="43.64794" lon="3.27436">
        <ele>369</ele>
        <time>2026-03-26T08:40:29.000Z</time>
      </trkpt>
      <trkpt lat="43.64807" lon="3.27417">
        <ele>373</ele>
        <time>2026-03-26T08:40:47.000Z</time>
      </trkpt>
      <trkpt lat="43.64824" lon="3.27404">
        <ele>375</ele>
        <time>2026-03-26T08:41:07.000Z</time>
      </trkpt>
      <trkpt lat="43.64839" lon="3.27388">
        <ele>377</ele>
        <time>2026-03-26T08:41:25.000Z</time>
      </trkpt>
      <trkpt lat="43.64851" lon="3.2737">
        <ele>379</ele>
        <time>2026-03-26T08:41:41.000Z</time>
      </trkpt>
      <trkpt lat="43.64857" lon="3.27346">
        <ele>383</ele>
        <time>2026-03-26T08:42:00.000Z</time>
      </trkpt>
      <trkpt lat="43.64863" lon="3.27322">
        <ele>384</ele>
        <time>2026-03-26T08:42:17.000Z</time>
      </trkpt>
      <trkpt lat="43.64866" lon="3.27298">
        <ele>387</ele>
        <time>2026-03-26T08:42:33.000Z</time>
      </trkpt>
      <trkpt lat="43.64878" lon="3.27281">
        <ele>391</ele>
        <time>2026-03-26T08:42:49.000Z</time>
      </trkpt>
      <trkpt lat="43.64894" lon="3.27267">
        <ele>394</ele>
        <time>2026-03-26T08:43:10.000Z</time>
      </trkpt>
      <trkpt lat="43.64908" lon="3.2725">
        <ele>393</ele>
        <time>2026-03-26T08:43:28.000Z</time>
      </trkpt>
      <trkpt lat="43.64923" lon="3.27234">
        <ele>398</ele>
        <time>2026-03-26T08:43:47.000Z</time>
      </trkpt>
      <trkpt lat="43.64939" lon="3.2722">
        <ele>400</ele>
        <time>2026-03-26T08:44:05.000Z</time>
      </trkpt>
      <trkpt lat="43.64954" lon="3.27206">
        <ele>402</ele>
        <time>2026-03-26T08:44:23.000Z</time>
      </trkpt>
      <trkpt lat="43.64971" lon="3.27194">
        <ele>404</ele>
        <time>2026-03-26T08:44:41.000Z</time>
      </trkpt>
      <trkpt lat="43.64986" lon="3.27181">
        <ele>406</ele>
        <time>2026-03-26T08:44:58.000Z</time>
      </trkpt>
      <trkpt lat="43.65001" lon="3.27164">
        <ele>408</ele>
        <time>2026-03-26T08:45:15.000Z</time>
      </trkpt>
      <trkpt lat="43.65017" lon="3.2715">
        <ele>410</ele>
        <time>2026-03-26T08:45:32.000Z</time>
      </trkpt>
      <trkpt lat="43.65031" lon="3.27132">
        <ele>412</ele>
        <time>2026-03-26T08:45:48.000Z</time>
      </trkpt>
      <trkpt lat="43.65044" lon="3.27113">
        <ele>414</ele>
        <time>2026-03-26T08:46:05.000Z</time>
      </trkpt>
      <trkpt lat="43.65056" lon="3.27093">
        <ele>415</ele>
        <time>2026-03-26T08:46:20.000Z</time>
      </trkpt>
      <trkpt lat="43.65069" lon="3.27073">
        <ele>417</ele>
        <time>2026-03-26T08:46:36.000Z</time>
      </trkpt>
      <trkpt lat="43.65081" lon="3.27053">
        <ele>419</ele>
        <time>2026-03-26T08:46:52.000Z</time>
      </trkpt>
      <trkpt lat="43.65088" lon="3.27029">
        <ele>422</ele>
        <time>2026-03-26T08:47:09.000Z</time>
      </trkpt>
      <trkpt lat="43.65086" lon="3.27003">
        <ele>423</ele>
        <time>2026-03-26T08:47:26.000Z</time>
      </trkpt>
      <trkpt lat="43.65084" lon="3.26978">
        <ele>425</ele>
        <time>2026-03-26T08:47:43.000Z</time>
      </trkpt>
      <trkpt lat="43.65083" lon="3.26951">
        <ele>427</ele>
        <time>2026-03-26T08:48:00.000Z</time>
      </trkpt>
      <trkpt lat="43.6508" lon="3.26926">
        <ele>428</ele>
        <time>2026-03-26T08:48:18.000Z</time>
      </trkpt>
      <trkpt lat="43.65083" lon="3.26901">
        <ele>431</ele>
        <time>2026-03-26T08:48:33.000Z</time>
      </trkpt>
      <trkpt lat="43.65083" lon="3.26877">
        <ele>432</ele>
        <time>2026-03-26T08:48:50.000Z</time>
      </trkpt>
      <trkpt lat="43.65079" lon="3.26852">
        <ele>431</ele>
        <time>2026-03-26T08:49:14.000Z</time>
      </trkpt>
      <trkpt lat="43.65071" lon="3.26828">
        <ele>430</ele>
        <time>2026-03-26T08:49:32.000Z</time>
      </trkpt>
      <trkpt lat="43.65069" lon="3.26802">
        <ele>428</ele>
        <time>2026-03-26T08:50:04.000Z</time>
      </trkpt>
      <trkpt lat="43.65066" lon="3.26779">
        <ele>427</ele>
        <time>2026-03-26T08:55:15.000Z</time>
      </trkpt>
      <trkpt lat="43.6505" lon="3.26771">
        <ele>427</ele>
        <time>2026-03-26T08:55:32.000Z</time>
      </trkpt>
      <trkpt lat="43.65031" lon="3.26766">
        <ele>430</ele>
        <time>2026-03-26T08:55:50.000Z</time>
      </trkpt>
      <trkpt lat="43.65013" lon="3.26759">
        <ele>431</ele>
        <time>2026-03-26T08:56:09.000Z</time>
      </trkpt>
      <trkpt lat="43.64993" lon="3.26756">
        <ele>431</ele>
        <time>2026-03-26T08:56:28.000Z</time>
      </trkpt>
      <trkpt lat="43.64974" lon="3.26756">
        <ele>432</ele>
        <time>2026-03-26T08:56:43.000Z</time>
      </trkpt>
      <trkpt lat="43.64954" lon="3.26761">
        <ele>431</ele>
        <time>2026-03-26T08:57:01.000Z</time>
      </trkpt>
      <trkpt lat="43.64936" lon="3.26772">
        <ele>428</ele>
        <time>2026-03-26T08:57:17.000Z</time>
      </trkpt>
      <trkpt lat="43.64919" lon="3.26783">
        <ele>424</ele>
        <time>2026-03-26T08:57:34.000Z</time>
      </trkpt>
      <trkpt lat="43.64901" lon="3.26793">
        <ele>421</ele>
        <time>2026-03-26T08:57:52.000Z</time>
      </trkpt>
      <trkpt lat="43.64883" lon="3.26801">
        <ele>420</ele>
        <time>2026-03-26T08:58:09.000Z</time>
      </trkpt>
      <trkpt lat="43.64865" lon="3.26808">
        <ele>418</ele>
        <time>2026-03-26T09:10:44.000Z</time>
      </trkpt>
      <trkpt lat="43.64847" lon="3.2681">
        <ele>413</ele>
        <time>2026-03-26T09:11:03.000Z</time>
      </trkpt>
      <trkpt lat="43.64828" lon="3.26813">
        <ele>410</ele>
        <time>2026-03-26T09:11:23.000Z</time>
      </trkpt>
      <trkpt lat="43.64809" lon="3.26813">
        <ele>407</ele>
        <time>2026-03-26T09:11:42.000Z</time>
      </trkpt>
      <trkpt lat="43.64792" lon="3.26805">
        <ele>405</ele>
        <time>2026-03-26T09:11:56.000Z</time>
      </trkpt>
      <trkpt lat="43.64776" lon="3.26796">
        <ele>403</ele>
        <time>2026-03-26T09:12:13.000Z</time>
      </trkpt>
      <trkpt lat="43.64757" lon="3.26793">
        <ele>402</ele>
        <time>2026-03-26T09:12:28.000Z</time>
      </trkpt>
      <trkpt lat="43.64738" lon="3.2679">
        <ele>398</ele>
        <time>2026-03-26T09:12:45.000Z</time>
      </trkpt>
      <trkpt lat="43.64718" lon="3.26786">
        <ele>398</ele>
        <time>2026-03-26T09:13:02.000Z</time>
      </trkpt>
      <trkpt lat="43.647" lon="3.26782">
        <ele>396</ele>
        <time>2026-03-26T09:13:16.000Z</time>
      </trkpt>
      <trkpt lat="43.64681" lon="3.26779">
        <ele>395</ele>
        <time>2026-03-26T09:13:29.000Z</time>
      </trkpt>
      <trkpt lat="43.64662" lon="3.26775">
        <ele>393</ele>
        <time>2026-03-26T09:13:45.000Z</time>
      </trkpt>
      <trkpt lat="43.64643" lon="3.26774">
        <ele>392</ele>
        <time>2026-03-26T09:14:01.000Z</time>
      </trkpt>
      <trkpt lat="43.64624" lon="3.26781">
        <ele>390</ele>
        <time>2026-03-26T09:14:23.000Z</time>
      </trkpt>
      <trkpt lat="43.64605" lon="3.26773">
        <ele>389</ele>
        <time>2026-03-26T09:14:37.000Z</time>
      </trkpt>
      <trkpt lat="43.64586" lon="3.26761">
        <ele>389</ele>
        <time>2026-03-26T09:14:50.000Z</time>
      </trkpt>
      <trkpt lat="43.64568" lon="3.26749">
        <ele>389</ele>
        <time>2026-03-26T09:15:04.000Z</time>
      </trkpt>
      <trkpt lat="43.64549" lon="3.26742">
        <ele>391</ele>
        <time>2026-03-26T09:15:20.000Z</time>
      </trkpt>
      <trkpt lat="43.64529" lon="3.26736">
        <ele>392</ele>
        <time>2026-03-26T09:15:36.000Z</time>
      </trkpt>
      <trkpt lat="43.6451" lon="3.26731">
        <ele>391</ele>
        <time>2026-03-26T09:15:51.000Z</time>
      </trkpt>
      <trkpt lat="43.64491" lon="3.26724">
        <ele>389</ele>
        <time>2026-03-26T09:16:06.000Z</time>
      </trkpt>
      <trkpt lat="43.64472" lon="3.26717">
        <ele>388</ele>
        <time>2026-03-26T09:16:22.000Z</time>
      </trkpt>
      <trkpt lat="43.64454" lon="3.26708">
        <ele>387</ele>
        <time>2026-03-26T09:16:37.000Z</time>
      </trkpt>
      <trkpt lat="43.64437" lon="3.26697">
        <ele>387</ele>
        <time>2026-03-26T09:16:52.000Z</time>
      </trkpt>
      <trkpt lat="43.64419" lon="3.26688">
        <ele>386</ele>
        <time>2026-03-26T09:17:07.000Z</time>
      </trkpt>
      <trkpt lat="43.644" lon="3.26682">
        <ele>385</ele>
        <time>2026-03-26T09:17:22.000Z</time>
      </trkpt>
      <trkpt lat="43.64383" lon="3.26678">
        <ele>385</ele>
        <time>2026-03-26T09:17:35.000Z</time>
      </trkpt>
      <trkpt lat="43.64366" lon="3.26668">
        <ele>383</ele>
        <time>2026-03-26T09:17:51.000Z</time>
      </trkpt>
      <trkpt lat="43.64351" lon="3.26655">
        <ele>382</ele>
        <time>2026-03-26T09:18:10.000Z</time>
      </trkpt>
      <trkpt lat="43.64334" lon="3.26647">
        <ele>380</ele>
        <time>2026-03-26T09:18:25.000Z</time>
      </trkpt>
      <trkpt lat="43.6432" lon="3.26632">
        <ele>380</ele>
        <time>2026-03-26T09:18:42.000Z</time>
      </trkpt>
      <trkpt lat="43.64303" lon="3.26626">
        <ele>379</ele>
        <time>2026-03-26T09:18:56.000Z</time>
      </trkpt>
      <trkpt lat="43.64289" lon="3.2664">
        <ele>378</ele>
        <time>2026-03-26T09:19:01.000Z</time>
      </trkpt>
      <trkpt lat="43.64272" lon="3.26641">
        <ele>376</ele>
        <time>2026-03-26T09:19:15.000Z</time>
      </trkpt>
      <trkpt lat="43.64255" lon="3.26633">
        <ele>375</ele>
        <time>2026-03-26T09:19:29.000Z</time>
      </trkpt>
      <trkpt lat="43.64237" lon="3.26626">
        <ele>374</ele>
        <time>2026-03-26T09:19:43.000Z</time>
      </trkpt>
      <trkpt lat="43.64218" lon="3.2662">
        <ele>374</ele>
        <time>2026-03-26T09:19:59.000Z</time>
      </trkpt>
      <trkpt lat="43.642" lon="3.26614">
        <ele>372</ele>
        <time>2026-03-26T09:20:14.000Z</time>
      </trkpt>
      <trkpt lat="43.64183" lon="3.26605">
        <ele>371</ele>
        <time>2026-03-26T09:20:31.000Z</time>
      </trkpt>
      <trkpt lat="43.64166" lon="3.26593">
        <ele>368</ele>
        <time>2026-03-26T09:20:48.000Z</time>
      </trkpt>
      <trkpt lat="43.64152" lon="3.26578">
        <ele>364</ele>
        <time>2026-03-26T09:21:05.000Z</time>
      </trkpt>
      <trkpt lat="43.64137" lon="3.26562">
        <ele>360</ele>
        <time>2026-03-26T09:21:22.000Z</time>
      </trkpt>
      <trkpt lat="43.64121" lon="3.26555">
        <ele>358</ele>
        <time>2026-03-26T09:21:37.000Z</time>
      </trkpt>
      <trkpt lat="43.64103" lon="3.26551">
        <ele>354</ele>
        <time>2026-03-26T09:21:52.000Z</time>
      </trkpt>
      <trkpt lat="43.64085" lon="3.26548">
        <ele>352</ele>
        <time>2026-03-26T09:22:08.000Z</time>
      </trkpt>
      <trkpt lat="43.64067" lon="3.26548">
        <ele>351</ele>
        <time>2026-03-26T09:22:23.000Z</time>
      </trkpt>
      <trkpt lat="43.64047" lon="3.26547">
        <ele>349</ele>
        <time>2026-03-26T09:22:38.000Z</time>
      </trkpt>
      <trkpt lat="43.64027" lon="3.26547">
        <ele>349</ele>
        <time>2026-03-26T09:22:56.000Z</time>
      </trkpt>
      <trkpt lat="43.64008" lon="3.26551">
        <ele>348</ele>
        <time>2026-03-26T09:23:11.000Z</time>
      </trkpt>
      <trkpt lat="43.63989" lon="3.26548">
        <ele>346</ele>
        <time>2026-03-26T09:23:43.000Z</time>
      </trkpt>
      <trkpt lat="43.63968" lon="3.26546">
        <ele>344</ele>
        <time>2026-03-26T09:23:55.000Z</time>
      </trkpt>
      <trkpt lat="43.63948" lon="3.26545">
        <ele>343</ele>
        <time>2026-03-26T09:24:08.000Z</time>
      </trkpt>
      <trkpt lat="43.63929" lon="3.26547">
        <ele>341</ele>
        <time>2026-03-26T09:24:23.000Z</time>
      </trkpt>
      <trkpt lat="43.6391" lon="3.26551">
        <ele>338</ele>
        <time>2026-03-26T09:24:39.000Z</time>
      </trkpt>
      <trkpt lat="43.63891" lon="3.26552">
        <ele>340</ele>
        <time>2026-03-26T09:25:02.000Z</time>
      </trkpt>
      <trkpt lat="43.63874" lon="3.2656">
        <ele>340</ele>
        <time>2026-03-26T09:25:13.000Z</time>
      </trkpt>
      <trkpt lat="43.63855" lon="3.26571">
        <ele>342</ele>
        <time>2026-03-26T09:25:24.000Z</time>
      </trkpt>
      <trkpt lat="43.63838" lon="3.26582">
        <ele>344</ele>
        <time>2026-03-26T09:25:39.000Z</time>
      </trkpt>
      <trkpt lat="43.63821" lon="3.26593">
        <ele>346</ele>
        <time>2026-03-26T09:25:58.000Z</time>
      </trkpt>
      <trkpt lat="43.63804" lon="3.26604">
        <ele>345</ele>
        <time>2026-03-26T09:26:25.000Z</time>
      </trkpt>
      <trkpt lat="43.63786" lon="3.26614">
        <ele>344</ele>
        <time>2026-03-26T09:26:43.000Z</time>
      </trkpt>
      <trkpt lat="43.63767" lon="3.26622">
        <ele>344</ele>
        <time>2026-03-26T09:27:05.000Z</time>
      </trkpt>
      <trkpt lat="43.63748" lon="3.26625">
        <ele>342</ele>
        <time>2026-03-26T09:27:18.000Z</time>
      </trkpt>
      <trkpt lat="43.63729" lon="3.26622">
        <ele>342</ele>
        <time>2026-03-26T09:27:33.000Z</time>
      </trkpt>
      <trkpt lat="43.63709" lon="3.26621">
        <ele>342</ele>
        <time>2026-03-26T09:32:17.000Z</time>
      </trkpt>
      <trkpt lat="43.6369" lon="3.2662">
        <ele>345</ele>
        <time>2026-03-26T09:32:37.000Z</time>
      </trkpt>
      <trkpt lat="43.63671" lon="3.26618">
        <ele>350</ele>
        <time>2026-03-26T09:33:00.000Z</time>
      </trkpt>
      <trkpt lat="43.63652" lon="3.26617">
        <ele>354</ele>
        <time>2026-03-26T09:33:22.000Z</time>
      </trkpt>
      <trkpt lat="43.63633" lon="3.26617">
        <ele>351</ele>
        <time>2026-03-26T09:33:46.000Z</time>
      </trkpt>
      <trkpt lat="43.63615" lon="3.26623">
        <ele>353</ele>
        <time>2026-03-26T09:34:03.000Z</time>
      </trkpt>
      <trkpt lat="43.63596" lon="3.26629">
        <ele>355</ele>
        <time>2026-03-26T09:34:28.000Z</time>
      </trkpt>
      <trkpt lat="43.63581" lon="3.26626">
        <ele>368</ele>
        <time>2026-03-26T09:38:55.000Z</time>
      </trkpt>
      <trkpt lat="43.63585" lon="3.26612">
        <ele>371</ele>
        <time>2026-03-26T09:44:48.000Z</time>
      </trkpt>
      <trkpt lat="43.63574" lon="3.26621">
        <ele>366</ele>
        <time>2026-03-26T09:48:05.000Z</time>
      </trkpt>
      <trkpt lat="43.63562" lon="3.26639">
        <ele>354</ele>
        <time>2026-03-26T09:54:59.000Z</time>
      </trkpt>
      <trkpt lat="43.63548" lon="3.26654">
        <ele>343</ele>
        <time>2026-03-26T09:55:31.000Z</time>
      </trkpt>
      <trkpt lat="43.63535" lon="3.2667">
        <ele>335</ele>
        <time>2026-03-26T09:56:40.000Z</time>
      </trkpt>
      <trkpt lat="43.63527" lon="3.2669">
        <ele>327</ele>
        <time>2026-03-26T09:57:09.000Z</time>
      </trkpt>
      <trkpt lat="43.63513" lon="3.26687">
        <ele>324</ele>
        <time>2026-03-26T09:59:22.000Z</time>
      </trkpt>
      <trkpt lat="43.63499" lon="3.26699">
        <ele>316</ele>
        <time>2026-03-26T09:59:53.000Z</time>
      </trkpt>
      <trkpt lat="43.63482" lon="3.26708">
        <ele>311</ele>
        <time>2026-03-26T10:00:24.000Z</time>
      </trkpt>
      <trkpt lat="43.63465" lon="3.26713">
        <ele>305</ele>
        <time>2026-03-26T10:01:06.000Z</time>
      </trkpt>
      <trkpt lat="43.63452" lon="3.26731">
        <ele>301</ele>
        <time>2026-03-26T10:01:39.000Z</time>
      </trkpt>
      <trkpt lat="43.63447" lon="3.26754">
        <ele>299</ele>
        <time>2026-03-26T10:02:02.000Z</time>
      </trkpt>
      <trkpt lat="43.63432" lon="3.26768">
        <ele>295</ele>
        <time>2026-03-26T10:02:34.000Z</time>
      </trkpt>
      <trkpt lat="43.63421" lon="3.26787">
        <ele>291</ele>
        <time>2026-03-26T10:03:14.000Z</time>
      </trkpt>
      <trkpt lat="43.6341" lon="3.26802">
        <ele>287</ele>
        <time>2026-03-26T10:04:02.000Z</time>
      </trkpt>
      <trkpt lat="43.63397" lon="3.2679">
        <ele>285</ele>
        <time>2026-03-26T10:04:31.000Z</time>
      </trkpt>
      <trkpt lat="43.63382" lon="3.26783">
        <ele>279</ele>
        <time>2026-03-26T10:05:23.000Z</time>
      </trkpt>
      <trkpt lat="43.63371" lon="3.26802">
        <ele>274</ele>
        <time>2026-03-26T10:06:05.000Z</time>
      </trkpt>
      <trkpt lat="43.63363" lon="3.26824">
        <ele>268</ele>
        <time>2026-03-26T10:06:23.000Z</time>
      </trkpt>
      <trkpt lat="43.63348" lon="3.26837">
        <ele>264</ele>
        <time>2026-03-26T10:07:02.000Z</time>
      </trkpt>
      <trkpt lat="43.6333" lon="3.26837">
        <ele>259</ele>
        <time>2026-03-26T10:07:57.000Z</time>
      </trkpt>
      <trkpt lat="43.63314" lon="3.26845">
        <ele>255</ele>
        <time>2026-03-26T10:08:25.000Z</time>
      </trkpt>
      <trkpt lat="43.63304" lon="3.26866">
        <ele>251</ele>
        <time>2026-03-26T10:10:09.000Z</time>
      </trkpt>
      <trkpt lat="43.63295" lon="3.26887">
        <ele>240</ele>
        <time>2026-03-26T10:11:13.000Z</time>
      </trkpt>
      <trkpt lat="43.63281" lon="3.269">
        <ele>233</ele>
        <time>2026-03-26T10:12:41.000Z</time>
      </trkpt>
      <trkpt lat="43.63264" lon="3.26903">
        <ele>226</ele>
        <time>2026-03-26T10:13:06.000Z</time>
      </trkpt>
      <trkpt lat="43.63246" lon="3.26906">
        <ele>220</ele>
        <time>2026-03-26T10:14:22.000Z</time>
      </trkpt>
      <trkpt lat="43.63229" lon="3.26913">
        <ele>218</ele>
        <time>2026-03-26T10:15:02.000Z</time>
      </trkpt>
      <trkpt lat="43.63213" lon="3.26924">
        <ele>216</ele>
        <time>2026-03-26T10:16:31.000Z</time>
      </trkpt>
      <trkpt lat="43.63199" lon="3.26939">
        <ele>217</ele>
        <time>2026-03-26T10:16:53.000Z</time>
      </trkpt>
      <trkpt lat="43.6319" lon="3.2696">
        <ele>217</ele>
        <time>2026-03-26T10:17:14.000Z</time>
      </trkpt>
      <trkpt lat="43.63183" lon="3.26979">
        <ele>212</ele>
        <time>2026-03-26T10:17:35.000Z</time>
      </trkpt>
      <trkpt lat="43.63176" lon="3.26962">
        <ele>212</ele>
        <time>2026-03-26T10:18:41.000Z</time>
      </trkpt>
      <trkpt lat="43.6317" lon="3.26938">
        <ele>211</ele>
        <time>2026-03-26T10:18:59.000Z</time>
      </trkpt>
      <trkpt lat="43.63171" lon="3.26919">
        <ele>211</ele>
        <time>2026-03-26T10:19:19.000Z</time>
      </trkpt>
      <trkpt lat="43.63173" lon="3.26936">
        <ele>211</ele>
        <time>2026-03-26T10:21:30.000Z</time>
      </trkpt>
      <trkpt lat="43.6318" lon="3.2696">
        <ele>213</ele>
        <time>2026-03-26T10:21:50.000Z</time>
      </trkpt>
      <trkpt lat="43.63188" lon="3.26985">
        <ele>214</ele>
        <time>2026-03-26T10:24:15.000Z</time>
      </trkpt>
      <trkpt lat="43.63195" lon="3.2701">
        <ele>213</ele>
        <time>2026-03-26T10:24:29.000Z</time>
      </trkpt>
      <trkpt lat="43.632" lon="3.27036">
        <ele>211</ele>
        <time>2026-03-26T10:24:47.000Z</time>
      </trkpt>
      <trkpt lat="43.6321" lon="3.27057">
        <ele>208</ele>
        <time>2026-03-26T10:25:03.000Z</time>
      </trkpt>
      <trkpt lat="43.63221" lon="3.27078">
        <ele>207</ele>
        <time>2026-03-26T10:25:24.000Z</time>
      </trkpt>
      <trkpt lat="43.63228" lon="3.27101">
        <ele>206</ele>
        <time>2026-03-26T10:25:40.000Z</time>
      </trkpt>
      <trkpt lat="43.63228" lon="3.27127">
        <ele>205</ele>
        <time>2026-03-26T10:25:55.000Z</time>
      </trkpt>
      <trkpt lat="43.6323" lon="3.27153">
        <ele>204</ele>
        <time>2026-03-26T10:26:13.000Z</time>
      </trkpt>
      <trkpt lat="43.63233" lon="3.27179">
        <ele>205</ele>
        <time>2026-03-26T10:26:58.000Z</time>
      </trkpt>
      <trkpt lat="43.63234" lon="3.27204">
        <ele>203</ele>
        <time>2026-03-26T10:27:14.000Z</time>
      </trkpt>
      <trkpt lat="43.63235" lon="3.27229">
        <ele>202</ele>
        <time>2026-03-26T10:27:31.000Z</time>
      </trkpt>
      <trkpt lat="43.63233" lon="3.27253">
        <ele>201</ele>
        <time>2026-03-26T10:27:54.000Z</time>
      </trkpt>
      <trkpt lat="43.63229" lon="3.27277">
        <ele>199</ele>
        <time>2026-03-26T10:28:13.000Z</time>
      </trkpt>
      <trkpt lat="43.63219" lon="3.27297">
        <ele>197</ele>
        <time>2026-03-26T10:28:30.000Z</time>
      </trkpt>
      <trkpt lat="43.63216" lon="3.27322">
        <ele>195</ele>
        <time>2026-03-26T10:28:48.000Z</time>
      </trkpt>
      <trkpt lat="43.63212" lon="3.27348">
        <ele>194</ele>
        <time>2026-03-26T10:29:07.000Z</time>
      </trkpt>
      <trkpt lat="43.63204" lon="3.27373">
        <ele>193</ele>
        <time>2026-03-26T10:29:27.000Z</time>
      </trkpt>
      <trkpt lat="43.63199" lon="3.27396">
        <ele>190</ele>
        <time>2026-03-26T10:29:43.000Z</time>
      </trkpt>
      <trkpt lat="43.63189" lon="3.27418">
        <ele>190</ele>
        <time>2026-03-26T10:30:02.000Z</time>
      </trkpt>
      <trkpt lat="43.63179" lon="3.27441">
        <ele>189</ele>
        <time>2026-03-26T10:30:23.000Z</time>
      </trkpt>
      <trkpt lat="43.63171" lon="3.27462">
        <ele>189</ele>
        <time>2026-03-26T10:30:40.000Z</time>
      </trkpt>
      <trkpt lat="43.63181" lon="3.27479">
        <ele>192</ele>
        <time>2026-03-26T10:34:04.000Z</time>
      </trkpt>
      <trkpt lat="43.63199" lon="3.27486">
        <ele>193</ele>
        <time>2026-03-26T10:34:23.000Z</time>
      </trkpt>
      <trkpt lat="43.63216" lon="3.27484">
        <ele>194</ele>
        <time>2026-03-26T10:34:42.000Z</time>
      </trkpt>
      <trkpt lat="43.63234" lon="3.27475">
        <ele>196</ele>
        <time>2026-03-26T10:35:09.000Z</time>
      </trkpt>
      <trkpt lat="43.63251" lon="3.27476">
        <ele>198</ele>
        <time>2026-03-26T10:35:30.000Z</time>
      </trkpt>
      <trkpt lat="43.63268" lon="3.27486">
        <ele>200</ele>
        <time>2026-03-26T10:35:53.000Z</time>
      </trkpt>
      <trkpt lat="43.63285" lon="3.27498">
        <ele>202</ele>
        <time>2026-03-26T10:36:12.000Z</time>
      </trkpt>
      <trkpt lat="43.63302" lon="3.27502">
        <ele>204</ele>
        <time>2026-03-26T10:36:32.000Z</time>
      </trkpt>
      <trkpt lat="43.6332" lon="3.27495">
        <ele>205</ele>
        <time>2026-03-26T10:36:50.000Z</time>
      </trkpt>
      <trkpt lat="43.63338" lon="3.27489">
        <ele>206</ele>
        <time>2026-03-26T10:37:10.000Z</time>
      </trkpt>
      <trkpt lat="43.63356" lon="3.27484">
        <ele>207</ele>
        <time>2026-03-26T10:37:25.000Z</time>
      </trkpt>
      <trkpt lat="43.63372" lon="3.27473">
        <ele>208</ele>
        <time>2026-03-26T10:37:43.000Z</time>
      </trkpt>
      <trkpt lat="43.63389" lon="3.27462">
        <ele>209</ele>
        <time>2026-03-26T10:38:00.000Z</time>
      </trkpt>
      <trkpt lat="43.63403" lon="3.27446">
        <ele>210</ele>
        <time>2026-03-26T10:38:18.000Z</time>
      </trkpt>
      <trkpt lat="43.63416" lon="3.27426">
        <ele>211</ele>
        <time>2026-03-26T10:38:36.000Z</time>
      </trkpt>
      <trkpt lat="43.63426" lon="3.27402">
        <ele>212</ele>
        <time>2026-03-26T10:38:56.000Z</time>
      </trkpt>
      <trkpt lat="43.63439" lon="3.27383">
        <ele>214</ele>
        <time>2026-03-26T10:39:15.000Z</time>
      </trkpt>
      <trkpt lat="43.63454" lon="3.27366">
        <ele>215</ele>
        <time>2026-03-26T10:39:34.000Z</time>
      </trkpt>
      <trkpt lat="43.6347" lon="3.27355">
        <ele>217</ele>
        <time>2026-03-26T10:39:52.000Z</time>
      </trkpt>
      <trkpt lat="43.63486" lon="3.27351">
        <ele>217</ele>
        <time>2026-03-26T10:40:09.000Z</time>
      </trkpt>
      <trkpt lat="43.6349" lon="3.27329">
        <ele>217</ele>
        <time>2026-03-26T10:40:32.000Z</time>
      </trkpt>
      <trkpt lat="43.63501" lon="3.2729">
        <ele>218.6</ele>
        <time>2026-03-26T10:41:11.000Z</time>
      </trkpt>
      <trkpt lat="43.6351" lon="3.27281">
        <ele>219.8</ele>
        <time>2026-03-26T10:41:46.000Z</time>
      </trkpt>
      <trkpt lat="43.63525" lon="3.27277">
        <ele>221.8</ele>
        <time>2026-03-26T10:42:18.000Z</time>
      </trkpt>
      <trkpt lat="43.63541" lon="3.27271">
        <ele>222.6</ele>
        <time>2026-03-26T10:43:08.000Z</time>
      </trkpt>
      <trkpt lat="43.63564" lon="3.27266">
        <ele>223.7</ele>
        <time>2026-03-26T10:44:10.000Z</time>
      </trkpt>
      <trkpt lat="43.63575" lon="3.27263">
        <ele>224.2</ele>
        <time>2026-03-26T10:44:39.000Z</time>
      </trkpt>
      <trkpt lat="43.6359" lon="3.27264">
        <ele>223.3</ele>
        <time>2026-03-26T10:48:10.000Z</time>
      </trkpt>
      <trkpt lat="43.63622" lon="3.2726">
        <ele>217.8</ele>
        <time>2026-03-26T10:48:43.000Z</time>
      </trkpt>
      <trkpt lat="43.63596" lon="3.27336">
        <ele>210.6</ele>
        <time>2026-03-26T10:49:24.000Z</time>
      </trkpt>
      <trkpt lat="43.63628" lon="3.27433">
        <ele>209.7</ele>
        <time>2026-03-26T10:49:57.000Z</time>
      </trkpt>
      <trkpt lat="43.63642" lon="3.2744">
        <ele>214.2</ele>
        <time>2026-03-26T10:50:15.000Z</time>
      </trkpt>
      <trkpt lat="43.63655" lon="3.27444">
        <ele>217</ele>
        <time>2026-03-26T10:50:51.000Z</time>
      </trkpt>
      <trkpt lat="43.63673" lon="3.27451">
        <ele>220.7</ele>
        <time>2026-03-26T10:51:20.000Z</time>
      </trkpt>
      <trkpt lat="43.63695" lon="3.27454">
        <ele>225.7</ele>
        <time>2026-03-26T10:51:53.000Z</time>
      </trkpt>
      <trkpt lat="43.63708" lon="3.27462">
        <ele>227.9</ele>
        <time>2026-03-26T10:52:26.000Z</time>
      </trkpt>
      <trkpt lat="43.63718" lon="3.2747">
        <ele>230.5</ele>
        <time>2026-03-26T10:53:28.000Z</time>
      </trkpt>
      <trkpt lat="43.63729" lon="3.27483">
        <ele>232.3</ele>
        <time>2026-03-26T10:53:52.000Z</time>
      </trkpt>
      <trkpt lat="43.63743" lon="3.27497">
        <ele>236.1</ele>
        <time>2026-03-26T10:54:15.000Z</time>
      </trkpt>
      <trkpt lat="43.63749" lon="3.27505">
        <ele>238</ele>
        <time>2026-03-26T10:55:39.000Z</time>
      </trkpt>
      <trkpt lat="43.63757" lon="3.27514">
        <ele>239.8</ele>
      </trkpt>
      <trkpt lat="43.63771" lon="3.27527">
        <ele>244.5</ele>
        <time>2026-03-26T10:55:57.000Z</time>
      </trkpt>
      <trkpt lat="43.63776" lon="3.27534">
        <ele>245.3</ele>
        <time>2026-03-26T10:56:21.000Z</time>
      </trkpt>
      <trkpt lat="43.63785" lon="3.27537">
        <ele>247.7</ele>
      </trkpt>
      <trkpt lat="43.63792" lon="3.2755">
        <ele>248.8</ele>
        <time>2026-03-26T10:56:42.000Z</time>
      </trkpt>
      <trkpt lat="43.63806" lon="3.27561">
        <ele>254.6</ele>
        <time>2026-03-26T10:57:11.000Z</time>
      </trkpt>
      <trkpt lat="43.63816" lon="3.2758">
        <ele>257.8</ele>
        <time>2026-03-26T10:57:44.000Z</time>
      </trkpt>
      <trkpt lat="43.63824" lon="3.27602">
        <ele>259.9</ele>
        <time>2026-03-26T10:58:17.000Z</time>
      </trkpt>
      <trkpt lat="43.63839" lon="3.27615">
        <ele>264.4</ele>
        <time>2026-03-26T10:58:49.000Z</time>
      </trkpt>
      <trkpt lat="43.63857" lon="3.27627">
        <ele>270.8</ele>
        <time>2026-03-26T10:59:43.000Z</time>
      </trkpt>
      <trkpt lat="43.63868" lon="3.27642">
        <ele>274.4</ele>
        <time>2026-03-26T11:00:07.000Z</time>
      </trkpt>
      <trkpt lat="43.63882" lon="3.27651">
        <ele>281.5</ele>
        <time>2026-03-26T11:00:36.000Z</time>
      </trkpt>
      <trkpt lat="43.63898" lon="3.27654">
        <ele>286.8</ele>
        <time>2026-03-26T11:01:15.000Z</time>
      </trkpt>
      <trkpt lat="43.63917" lon="3.27627">
        <ele>292.2</ele>
        <time>2026-03-26T11:02:01.000Z</time>
      </trkpt>
      <trkpt lat="43.63936" lon="3.2761">
        <ele>297.5</ele>
        <time>2026-03-26T11:04:23.000Z</time>
      </trkpt>
      <trkpt lat="43.63948" lon="3.27593">
        <ele>298.6</ele>
        <time>2026-03-26T11:06:01.000Z</time>
      </trkpt>
      <trkpt lat="43.63959" lon="3.27601">
        <ele>302.5</ele>
        <time>2026-03-26T11:09:23.000Z</time>
      </trkpt>
      <trkpt lat="43.63956" lon="3.27632">
        <ele>305.5</ele>
        <time>2026-03-26T11:09:58.000Z</time>
      </trkpt>
      <trkpt lat="43.63952" lon="3.27661">
        <ele>305.6</ele>
        <time>2026-03-26T11:14:39.000Z</time>
      </trkpt>
      <trkpt lat="43.63973" lon="3.27642">
        <ele>312.2</ele>
        <time>2026-03-26T11:15:16.000Z</time>
      </trkpt>
      <trkpt lat="43.63992" lon="3.27637">
        <ele>316.7</ele>
        <time>2026-03-26T11:16:14.000Z</time>
      </trkpt>
      <trkpt lat="43.63979" lon="3.27642">
        <ele>313.8</ele>
        <time>2026-03-26T11:22:11.000Z</time>
      </trkpt>
      <trkpt lat="43.63997" lon="3.2763">
        <ele>316.8</ele>
        <time>2026-03-26T11:23:17.000Z</time>
      </trkpt>
      <trkpt lat="43.64016" lon="3.27621">
        <ele>320.5</ele>
        <time>2026-03-26T11:57:54.000Z</time>
      </trkpt>
      <trkpt lat="43.64028" lon="3.27614">
        <ele>322.3</ele>
      </trkpt>
      <trkpt lat="43.64023" lon="3.27628">
        <ele>323.1</ele>
      </trkpt>
      <trkpt lat="43.64038" lon="3.27628">
        <ele>326.7</ele>
      </trkpt>
      <trkpt lat="43.64051" lon="3.27621">
        <ele>328.7</ele>
        <time>2026-03-26T11:58:41.000Z</time>
      </trkpt>
      <trkpt lat="43.64074" lon="3.27623">
        <ele>333.5</ele>
      </trkpt>
      <trkpt lat="43.64103" lon="3.27617">
        <ele>338.1</ele>
      </trkpt>
      <trkpt lat="43.64125" lon="3.27588">
        <ele>340.6</ele>
      </trkpt>
      <trkpt lat="43.64139" lon="3.27573">
        <ele>343.3</ele>
      </trkpt>
      <trkpt lat="43.64144" lon="3.27544">
        <ele>341</ele>
        <time>2026-03-26T12:05:06.000Z</time>
      </trkpt>
      <trkpt lat="43.64174" lon="3.27517">
        <ele>337</ele>
        <time>2026-03-26T12:05:25.000Z</time>
      </trkpt>
      <trkpt lat="43.64192" lon="3.27508">
        <ele>339</ele>
        <time>2026-03-26T12:05:46.000Z</time>
      </trkpt>
      <trkpt lat="43.6421" lon="3.27498">
        <ele>343</ele>
        <time>2026-03-26T12:06:16.000Z</time>
      </trkpt>
      <trkpt lat="43.64227" lon="3.27494">
        <ele>346</ele>
        <time>2026-03-26T12:06:58.000Z</time>
      </trkpt>
      <trkpt lat="43.64243" lon="3.27483">
        <ele>346</ele>
        <time>2026-03-26T12:07:44.000Z</time>
      </trkpt>
      <trkpt lat="43.64256" lon="3.27466">
        <ele>349</ele>
        <time>2026-03-26T12:08:19.000Z</time>
      </trkpt>
      <trkpt lat="43.64269" lon="3.27449">
        <ele>348</ele>
        <time>2026-03-26T12:09:04.000Z</time>
      </trkpt>
      <trkpt lat="43.64284" lon="3.27436">
        <ele>347</ele>
        <time>2026-03-26T12:09:40.000Z</time>
      </trkpt>
      <trkpt lat="43.643" lon="3.27426">
        <ele>347</ele>
        <time>2026-03-26T12:10:06.000Z</time>
      </trkpt>
      <trkpt lat="43.6432" lon="3.27427">
        <ele>347</ele>
        <time>2026-03-26T12:10:24.000Z</time>
      </trkpt>
      <trkpt lat="43.64337" lon="3.27437">
        <ele>349</ele>
        <time>2026-03-26T12:11:24.000Z</time>
      </trkpt>
      <trkpt lat="43.64355" lon="3.27444">
        <ele>352</ele>
        <time>2026-03-26T12:11:56.000Z</time>
      </trkpt>
      <trkpt lat="43.64372" lon="3.27441">
        <ele>356</ele>
        <time>2026-03-26T12:12:35.000Z</time>
      </trkpt>
      <trkpt lat="43.64387" lon="3.27426">
        <ele>358</ele>
        <time>2026-03-26T12:13:00.000Z</time>
      </trkpt>
      <trkpt lat="43.64403" lon="3.27418">
        <ele>363</ele>
        <time>2026-03-26T12:13:59.000Z</time>
      </trkpt>
      <trkpt lat="43.6442" lon="3.27425">
        <ele>364</ele>
        <time>2026-03-26T12:14:24.000Z</time>
      </trkpt>
      <trkpt lat="43.64436" lon="3.27436">
        <ele>366</ele>
        <time>2026-03-26T12:14:53.000Z</time>
      </trkpt>
      <trkpt lat="43.64451" lon="3.27448">
        <ele>367</ele>
        <time>2026-03-26T12:15:11.000Z</time>
      </trkpt>
      <trkpt lat="43.64467" lon="3.2746">
        <ele>365</ele>
        <time>2026-03-26T12:15:31.000Z</time>
      </trkpt>
      <trkpt lat="43.64483" lon="3.27472">
        <ele>365</ele>
        <time>2026-03-26T12:15:57.000Z</time>
      </trkpt>
      <trkpt lat="43.64498" lon="3.27487">
        <ele>364</ele>
        <time>2026-03-26T12:16:20.000Z</time>
      </trkpt>
      <trkpt lat="43.64514" lon="3.27503">
        <ele>361</ele>
        <time>2026-03-26T12:16:37.000Z</time>
      </trkpt>
      <trkpt lat="43.64529" lon="3.27519">
        <ele>358</ele>
        <time>2026-03-26T12:16:55.000Z</time>
      </trkpt>
      <trkpt lat="43.64542" lon="3.27537">
        <ele>357</ele>
        <time>2026-03-26T12:17:14.000Z</time>
      </trkpt>
      <trkpt lat="43.64554" lon="3.27556">
        <ele>355</ele>
        <time>2026-03-26T12:17:36.000Z</time>
      </trkpt>
      <trkpt lat="43.64569" lon="3.27569">
        <ele>355</ele>
        <time>2026-03-26T12:17:57.000Z</time>
      </trkpt>
      <trkpt lat="43.64585" lon="3.27573">
        <ele>355</ele>
        <time>2026-03-26T12:18:16.000Z</time>
      </trkpt>
      <trkpt lat="43.64589" lon="3.27595">
        <ele>356</ele>
        <time>2026-03-26T12:20:12.000Z</time>
      </trkpt>
      <trkpt lat="43.64579" lon="3.27615">
        <ele>357</ele>
        <time>2026-03-26T12:20:29.000Z</time>
      </trkpt>
      <trkpt lat="43.64566" lon="3.2763">
        <ele>357</ele>
        <time>2026-03-26T12:20:47.000Z</time>
      </trkpt>
      <trkpt lat="43.64552" lon="3.27648">
        <ele>360</ele>
        <time>2026-03-26T12:21:05.000Z</time>
      </trkpt>
      <trkpt lat="43.64539" lon="3.27667">
        <ele>360</ele>
        <time>2026-03-26T12:21:23.000Z</time>
      </trkpt>
      <trkpt lat="43.64523" lon="3.27683">
        <ele>362</ele>
        <time>2026-03-26T12:21:41.000Z</time>
      </trkpt>
      <trkpt lat="43.64508" lon="3.27697">
        <ele>364</ele>
        <time>2026-03-26T12:22:00.000Z</time>
      </trkpt>
      <trkpt lat="43.64492" lon="3.27707">
        <ele>366</ele>
        <time>2026-03-26T12:22:18.000Z</time>
      </trkpt>
      <trkpt lat="43.64474" lon="3.27719">
        <ele>370</ele>
        <time>2026-03-26T12:22:39.000Z</time>
      </trkpt>
      <trkpt lat="43.64459" lon="3.27734">
        <ele>370</ele>
        <time>2026-03-26T12:22:57.000Z</time>
      </trkpt>
      <trkpt lat="43.64443" lon="3.27747">
        <ele>371</ele>
        <time>2026-03-26T12:23:14.000Z</time>
      </trkpt>
      <trkpt lat="43.64428" lon="3.27761">
        <ele>372</ele>
        <time>2026-03-26T12:23:31.000Z</time>
      </trkpt>
      <trkpt lat="43.64414" lon="3.27775">
        <ele>372</ele>
        <time>2026-03-26T12:23:48.000Z</time>
      </trkpt>
      <trkpt lat="43.64398" lon="3.27787">
        <ele>372</ele>
        <time>2026-03-26T12:24:04.000Z</time>
      </trkpt>
      <trkpt lat="43.64383" lon="3.27803">
        <ele>372</ele>
        <time>2026-03-26T12:24:21.000Z</time>
      </trkpt>
      <trkpt lat="43.6437" lon="3.27822">
        <ele>371</ele>
        <time>2026-03-26T12:24:38.000Z</time>
      </trkpt>
      <trkpt lat="43.64357" lon="3.2784">
        <ele>371</ele>
        <time>2026-03-26T12:24:54.000Z</time>
      </trkpt>
      <trkpt lat="43.64346" lon="3.27861">
        <ele>369</ele>
        <time>2026-03-26T12:25:11.000Z</time>
      </trkpt>
      <trkpt lat="43.64337" lon="3.27882">
        <ele>369</ele>
        <time>2026-03-26T12:25:25.000Z</time>
      </trkpt>
      <trkpt lat="43.64325" lon="3.27903">
        <ele>370</ele>
        <time>2026-03-26T12:25:42.000Z</time>
      </trkpt>
      <trkpt lat="43.64312" lon="3.27921">
        <ele>372</ele>
        <time>2026-03-26T12:25:58.000Z</time>
      </trkpt>
      <trkpt lat="43.64299" lon="3.27941">
        <ele>372</ele>
        <time>2026-03-26T12:26:17.000Z</time>
      </trkpt>
      <trkpt lat="43.64285" lon="3.27959">
        <ele>373</ele>
        <time>2026-03-26T12:26:34.000Z</time>
      </trkpt>
      <trkpt lat="43.64274" lon="3.2798">
        <ele>374</ele>
        <time>2026-03-26T12:26:50.000Z</time>
      </trkpt>
      <trkpt lat="43.64273" lon="3.28005">
        <ele>371</ele>
        <time>2026-03-26T12:27:03.000Z</time>
      </trkpt>
      <trkpt lat="43.64267" lon="3.2803">
        <ele>371</ele>
        <time>2026-03-26T12:27:19.000Z</time>
      </trkpt>
      <trkpt lat="43.64257" lon="3.28053">
        <ele>371</ele>
        <time>2026-03-26T12:27:37.000Z</time>
      </trkpt>
      <trkpt lat="43.64245" lon="3.28071">
        <ele>371</ele>
        <time>2026-03-26T12:28:12.000Z</time>
      </trkpt>
      <trkpt lat="43.64241" lon="3.28095">
        <ele>369</ele>
        <time>2026-03-26T12:29:22.000Z</time>
      </trkpt>
      <trkpt lat="43.64232" lon="3.28119">
        <ele>368</ele>
        <time>2026-03-26T12:29:34.000Z</time>
      </trkpt>
      <trkpt lat="43.6422" lon="3.28138">
        <ele>368</ele>
        <time>2026-03-26T12:29:46.000Z</time>
      </trkpt>
      <trkpt lat="43.64206" lon="3.28155">
        <ele>369</ele>
        <time>2026-03-26T12:29:59.000Z</time>
      </trkpt>
      <trkpt lat="43.64195" lon="3.28176">
        <ele>366</ele>
        <time>2026-03-26T12:30:12.000Z</time>
      </trkpt>
      <trkpt lat="43.64184" lon="3.28198">
        <ele>362</ele>
        <time>2026-03-26T12:30:25.000Z</time>
      </trkpt>
      <trkpt lat="43.6417" lon="3.28217">
        <ele>362</ele>
        <time>2026-03-26T12:30:39.000Z</time>
      </trkpt>
      <trkpt lat="43.64154" lon="3.2823">
        <ele>359</ele>
        <time>2026-03-26T12:30:52.000Z</time>
      </trkpt>
      <trkpt lat="43.6414" lon="3.28248">
        <ele>357</ele>
        <time>2026-03-26T12:31:04.000Z</time>
      </trkpt>
      <trkpt lat="43.64126" lon="3.28266">
        <ele>355</ele>
        <time>2026-03-26T12:31:17.000Z</time>
      </trkpt>
      <trkpt lat="43.64112" lon="3.28286">
        <ele>354</ele>
        <time>2026-03-26T12:31:29.000Z</time>
      </trkpt>
      <trkpt lat="43.64101" lon="3.28306">
        <ele>354</ele>
        <time>2026-03-26T12:31:42.000Z</time>
      </trkpt>
      <trkpt lat="43.64087" lon="3.28326">
        <ele>352</ele>
        <time>2026-03-26T12:31:56.000Z</time>
      </trkpt>
      <trkpt lat="43.64078" lon="3.28349">
        <ele>349</ele>
        <time>2026-03-26T12:32:40.000Z</time>
      </trkpt>
      <trkpt lat="43.64065" lon="3.28369">
        <ele>348</ele>
        <time>2026-03-26T12:32:54.000Z</time>
      </trkpt>
      <trkpt lat="43.64053" lon="3.28388">
        <ele>347</ele>
        <time>2026-03-26T12:34:56.000Z</time>
      </trkpt>
      <trkpt lat="43.64042" lon="3.28408">
        <ele>346</ele>
        <time>2026-03-26T12:35:15.000Z</time>
      </trkpt>
      <trkpt lat="43.64029" lon="3.28425">
        <ele>345</ele>
        <time>2026-03-26T12:35:35.000Z</time>
      </trkpt>
      <trkpt lat="43.64013" lon="3.2844">
        <ele>343</ele>
        <time>2026-03-26T12:35:56.000Z</time>
      </trkpt>
      <trkpt lat="43.63999" lon="3.28452">
        <ele>341</ele>
        <time>2026-03-26T12:36:14.000Z</time>
      </trkpt>
      <trkpt lat="43.6401" lon="3.28462">
        <ele>337</ele>
        <time>2026-03-26T12:37:18.000Z</time>
      </trkpt>
      <trkpt lat="43.64025" lon="3.28452">
        <ele>336</ele>
        <time>2026-03-26T12:37:36.000Z</time>
      </trkpt>
      <trkpt lat="43.64042" lon="3.28441">
        <ele>336</ele>
        <time>2026-03-26T12:37:51.000Z</time>
      </trkpt>
      <trkpt lat="43.64057" lon="3.28428">
        <ele>334</ele>
        <time>2026-03-26T12:38:07.000Z</time>
      </trkpt>
      <trkpt lat="43.64073" lon="3.28415">
        <ele>333</ele>
        <time>2026-03-26T12:38:22.000Z</time>
      </trkpt>
      <trkpt lat="43.64089" lon="3.28401">
        <ele>332</ele>
        <time>2026-03-26T12:38:38.000Z</time>
      </trkpt>
      <trkpt lat="43.64105" lon="3.28389">
        <ele>330</ele>
        <time>2026-03-26T12:38:56.000Z</time>
      </trkpt>
      <trkpt lat="43.64121" lon="3.28378">
        <ele>329</ele>
        <time>2026-03-26T12:39:13.000Z</time>
      </trkpt>
      <trkpt lat="43.64138" lon="3.28374">
        <ele>327</ele>
        <time>2026-03-26T12:39:33.000Z</time>
      </trkpt>
      <trkpt lat="43.64155" lon="3.28362">
        <ele>325</ele>
        <time>2026-03-26T12:40:12.000Z</time>
      </trkpt>
      <trkpt lat="43.64171" lon="3.28349">
        <ele>324</ele>
        <time>2026-03-26T12:40:30.000Z</time>
      </trkpt>
      <trkpt lat="43.64188" lon="3.28335">
        <ele>324</ele>
        <time>2026-03-26T12:40:43.000Z</time>
      </trkpt>
      <trkpt lat="43.64205" lon="3.28323">
        <ele>323</ele>
        <time>2026-03-26T12:40:56.000Z</time>
      </trkpt>
      <trkpt lat="43.64223" lon="3.28313">
        <ele>322</ele>
        <time>2026-03-26T12:41:10.000Z</time>
      </trkpt>
      <trkpt lat="43.64242" lon="3.28308">
        <ele>320</ele>
        <time>2026-03-26T12:41:25.000Z</time>
      </trkpt>
      <trkpt lat="43.64258" lon="3.28297">
        <ele>318</ele>
        <time>2026-03-26T12:41:38.000Z</time>
      </trkpt>
      <trkpt lat="43.64273" lon="3.28281">
        <ele>316</ele>
        <time>2026-03-26T12:41:53.000Z</time>
      </trkpt>
      <trkpt lat="43.64289" lon="3.28267">
        <ele>313</ele>
        <time>2026-03-26T12:42:09.000Z</time>
      </trkpt>
      <trkpt lat="43.64303" lon="3.28248">
        <ele>313</ele>
        <time>2026-03-26T12:42:24.000Z</time>
      </trkpt>
      <trkpt lat="43.64316" lon="3.2823">
        <ele>313</ele>
        <time>2026-03-26T12:42:39.000Z</time>
      </trkpt>
      <trkpt lat="43.64327" lon="3.28218">
        <ele>310</ele>
        <time>2026-03-26T12:42:54.000Z</time>
      </trkpt>
      <trkpt lat="43.64327" lon="3.28238">
        <ele>307</ele>
        <time>2026-03-26T12:43:29.000Z</time>
      </trkpt>
      <trkpt lat="43.64318" lon="3.28261">
        <ele>305</ele>
        <time>2026-03-26T12:43:45.000Z</time>
      </trkpt>
      <trkpt lat="43.6431" lon="3.28285">
        <ele>304</ele>
        <time>2026-03-26T12:44:01.000Z</time>
      </trkpt>
      <trkpt lat="43.64303" lon="3.28309">
        <ele>303</ele>
        <time>2026-03-26T12:48:58.000Z</time>
      </trkpt>
      <trkpt lat="43.64293" lon="3.2833">
        <ele>302</ele>
        <time>2026-03-26T12:49:13.000Z</time>
      </trkpt>
      <trkpt lat="43.64279" lon="3.28347">
        <ele>301</ele>
        <time>2026-03-26T12:49:28.000Z</time>
      </trkpt>
      <trkpt lat="43.64266" lon="3.28365">
        <ele>299</ele>
        <time>2026-03-26T12:49:44.000Z</time>
      </trkpt>
      <trkpt lat="43.64254" lon="3.28383">
        <ele>298</ele>
        <time>2026-03-26T12:50:01.000Z</time>
      </trkpt>
      <trkpt lat="43.64242" lon="3.28405">
        <ele>296</ele>
        <time>2026-03-26T12:50:16.000Z</time>
      </trkpt>
      <trkpt lat="43.64233" lon="3.28429">
        <ele>295</ele>
        <time>2026-03-26T12:50:30.000Z</time>
      </trkpt>
      <trkpt lat="43.6422" lon="3.28447">
        <ele>292</ele>
        <time>2026-03-26T12:50:45.000Z</time>
      </trkpt>
      <trkpt lat="43.64206" lon="3.28464">
        <ele>291</ele>
        <time>2026-03-26T12:50:58.000Z</time>
      </trkpt>
      <trkpt lat="43.6419" lon="3.2848">
        <ele>289</ele>
        <time>2026-03-26T12:51:13.000Z</time>
      </trkpt>
      <trkpt lat="43.64177" lon="3.28499">
        <ele>288</ele>
        <time>2026-03-26T12:51:28.000Z</time>
      </trkpt>
      <trkpt lat="43.64167" lon="3.28521">
        <ele>286</ele>
        <time>2026-03-26T12:51:47.000Z</time>
      </trkpt>
      <trkpt lat="43.64154" lon="3.28541">
        <ele>285</ele>
        <time>2026-03-26T12:52:33.000Z</time>
      </trkpt>
      <trkpt lat="43.64143" lon="3.28561">
        <ele>284</ele>
        <time>2026-03-26T12:52:47.000Z</time>
      </trkpt>
      <trkpt lat="43.64133" lon="3.28582">
        <ele>281</ele>
        <time>2026-03-26T12:53:03.000Z</time>
      </trkpt>
      <trkpt lat="43.64121" lon="3.28602">
        <ele>280</ele>
        <time>2026-03-26T12:53:17.000Z</time>
      </trkpt>
      <trkpt lat="43.64106" lon="3.28617">
        <ele>280</ele>
        <time>2026-03-26T12:53:32.000Z</time>
      </trkpt>
      <trkpt lat="43.64091" lon="3.28634">
        <ele>277</ele>
        <time>2026-03-26T12:53:49.000Z</time>
      </trkpt>
      <trkpt lat="43.64076" lon="3.2865">
        <ele>275</ele>
        <time>2026-03-26T12:54:24.000Z</time>
      </trkpt>
      <trkpt lat="43.64063" lon="3.2867">
        <ele>273</ele>
        <time>2026-03-26T12:54:48.000Z</time>
      </trkpt>
      <trkpt lat="43.64046" lon="3.28682">
        <ele>273</ele>
        <time>2026-03-26T12:55:00.000Z</time>
      </trkpt>
      <trkpt lat="43.64028" lon="3.28687">
        <ele>272</ele>
        <time>2026-03-26T12:55:13.000Z</time>
      </trkpt>
      <trkpt lat="43.64008" lon="3.28688">
        <ele>270</ele>
        <time>2026-03-26T12:55:26.000Z</time>
      </trkpt>
      <trkpt lat="43.63995" lon="3.28695">
        <ele>268</ele>
        <time>2026-03-26T12:55:43.000Z</time>
      </trkpt>
      <trkpt lat="43.64004" lon="3.28711">
        <ele>264</ele>
        <time>2026-03-26T12:56:25.000Z</time>
      </trkpt>
      <trkpt lat="43.6402" lon="3.28721">
        <ele>262</ele>
        <time>2026-03-26T12:56:40.000Z</time>
      </trkpt>
      <trkpt lat="43.64037" lon="3.28727">
        <ele>261</ele>
        <time>2026-03-26T12:56:53.000Z</time>
      </trkpt>
      <trkpt lat="43.64057" lon="3.28726">
        <ele>261</ele>
        <time>2026-03-26T12:57:09.000Z</time>
      </trkpt>
      <trkpt lat="43.64075" lon="3.28723">
        <ele>258</ele>
        <time>2026-03-26T12:57:28.000Z</time>
      </trkpt>
      <trkpt lat="43.64093" lon="3.28716">
        <ele>257</ele>
        <time>2026-03-26T12:57:44.000Z</time>
      </trkpt>
      <trkpt lat="43.6411" lon="3.28721">
        <ele>254</ele>
        <time>2026-03-26T12:58:14.000Z</time>
      </trkpt>
      <trkpt lat="43.6413" lon="3.28722">
        <ele>253</ele>
        <time>2026-03-26T12:58:42.000Z</time>
      </trkpt>
      <trkpt lat="43.64149" lon="3.28719">
        <ele>252</ele>
        <time>2026-03-26T12:59:18.000Z</time>
      </trkpt>
      <trkpt lat="43.64168" lon="3.28716">
        <ele>251</ele>
        <time>2026-03-26T12:59:36.000Z</time>
      </trkpt>
      <trkpt lat="43.64186" lon="3.28712">
        <ele>250</ele>
        <time>2026-03-26T12:59:52.000Z</time>
      </trkpt>
      <trkpt lat="43.64205" lon="3.28712">
        <ele>248</ele>
        <time>2026-03-26T13:00:11.000Z</time>
      </trkpt>
      <trkpt lat="43.64224" lon="3.28709">
        <ele>247</ele>
        <time>2026-03-26T13:00:28.000Z</time>
      </trkpt>
      <trkpt lat="43.64242" lon="3.28696">
        <ele>245</ele>
        <time>2026-03-26T13:00:47.000Z</time>
      </trkpt>
      <trkpt lat="43.64259" lon="3.28682">
        <ele>243</ele>
        <time>2026-03-26T13:01:06.000Z</time>
      </trkpt>
      <trkpt lat="43.64269" lon="3.28661">
        <ele>243</ele>
        <time>2026-03-26T13:01:21.000Z</time>
      </trkpt>
      <trkpt lat="43.64281" lon="3.28642">
        <ele>241</ele>
        <time>2026-03-26T13:01:35.000Z</time>
      </trkpt>
      <trkpt lat="43.64296" lon="3.28625">
        <ele>239</ele>
        <time>2026-03-26T13:01:52.000Z</time>
      </trkpt>
      <trkpt lat="43.64311" lon="3.28609">
        <ele>237</ele>
        <time>2026-03-26T13:02:07.000Z</time>
      </trkpt>
      <trkpt lat="43.64328" lon="3.28603">
        <ele>237</ele>
        <time>2026-03-26T13:02:24.000Z</time>
      </trkpt>
      <trkpt lat="43.64343" lon="3.28601">
        <ele>235</ele>
        <time>2026-03-26T13:02:40.000Z</time>
      </trkpt>
      <trkpt lat="43.6434" lon="3.28621">
        <ele>232</ele>
        <time>2026-03-26T13:05:16.000Z</time>
      </trkpt>
      <trkpt lat="43.6433" lon="3.28642">
        <ele>231</ele>
        <time>2026-03-26T13:05:35.000Z</time>
      </trkpt>
      <trkpt lat="43.64324" lon="3.28668">
        <ele>229</ele>
        <time>2026-03-26T13:05:52.000Z</time>
      </trkpt>
      <trkpt lat="43.64321" lon="3.28694">
        <ele>228</ele>
        <time>2026-03-26T13:06:10.000Z</time>
      </trkpt>
      <trkpt lat="43.64313" lon="3.28717">
        <ele>227</ele>
        <time>2026-03-26T13:06:27.000Z</time>
      </trkpt>
      <trkpt lat="43.64301" lon="3.28737">
        <ele>225</ele>
        <time>2026-03-26T13:06:44.000Z</time>
      </trkpt>
      <trkpt lat="43.64287" lon="3.28756">
        <ele>225</ele>
        <time>2026-03-26T13:07:01.000Z</time>
      </trkpt>
      <trkpt lat="43.64275" lon="3.28774">
        <ele>222</ele>
        <time>2026-03-26T13:07:16.000Z</time>
      </trkpt>
      <trkpt lat="43.64268" lon="3.28798">
        <ele>222</ele>
        <time>2026-03-26T13:07:32.000Z</time>
      </trkpt>
      <trkpt lat="43.64258" lon="3.28819">
        <ele>219</ele>
        <time>2026-03-26T13:07:49.000Z</time>
      </trkpt>
      <trkpt lat="43.64244" lon="3.28837">
        <ele>219</ele>
        <time>2026-03-26T13:08:05.000Z</time>
      </trkpt>
      <trkpt lat="43.64229" lon="3.28852">
        <ele>217</ele>
        <time>2026-03-26T13:08:21.000Z</time>
      </trkpt>
      <trkpt lat="43.64214" lon="3.28867">
        <ele>216</ele>
        <time>2026-03-26T13:08:38.000Z</time>
      </trkpt>
      <trkpt lat="43.64201" lon="3.28884">
        <ele>215</ele>
        <time>2026-03-26T13:08:53.000Z</time>
      </trkpt>
      <trkpt lat="43.64185" lon="3.28895">
        <ele>213</ele>
        <time>2026-03-26T13:09:09.000Z</time>
      </trkpt>
      <trkpt lat="43.64167" lon="3.28906">
        <ele>212</ele>
        <time>2026-03-26T13:09:26.000Z</time>
      </trkpt>
      <trkpt lat="43.6415" lon="3.28917">
        <ele>210</ele>
        <time>2026-03-26T13:09:42.000Z</time>
      </trkpt>
      <trkpt lat="43.64133" lon="3.28927">
        <ele>209</ele>
        <time>2026-03-26T13:09:58.000Z</time>
      </trkpt>
      <trkpt lat="43.64124" lon="3.28942">
        <ele>207</ele>
        <time>2026-03-26T13:10:19.000Z</time>
      </trkpt>
      <trkpt lat="43.64139" lon="3.28948">
        <ele>204</ele>
        <time>2026-03-26T13:10:45.000Z</time>
      </trkpt>
      <trkpt lat="43.64151" lon="3.28961">
        <ele>203</ele>
        <time>2026-03-26T13:11:26.000Z</time>
      </trkpt>
      <trkpt lat="43.64142" lon="3.2898">
        <ele>207</ele>
        <time>2026-03-26T13:11:51.000Z</time>
      </trkpt>
      <trkpt lat="43.64129" lon="3.28999">
        <ele>207</ele>
        <time>2026-03-26T13:12:10.000Z</time>
      </trkpt>
      <trkpt lat="43.64122" lon="3.29023">
        <ele>207</ele>
        <time>2026-03-26T13:12:29.000Z</time>
      </trkpt>
      <trkpt lat="43.64122" lon="3.29048">
        <ele>208</ele>
        <time>2026-03-26T13:13:04.000Z</time>
      </trkpt>
      <trkpt lat="43.64132" lon="3.29069">
        <ele>212</ele>
        <time>2026-03-26T13:13:31.000Z</time>
      </trkpt>
      <trkpt lat="43.64142" lon="3.29089">
        <ele>214</ele>
        <time>2026-03-26T13:13:52.000Z</time>
      </trkpt>
      <trkpt lat="43.64153" lon="3.2911">
        <ele>219</ele>
        <time>2026-03-26T13:14:13.000Z</time>
      </trkpt>
      <trkpt lat="43.64159" lon="3.29133">
        <ele>224</ele>
        <time>2026-03-26T13:14:37.000Z</time>
      </trkpt>
      <trkpt lat="43.64152" lon="3.29151">
        <ele>225</ele>
        <time>2026-03-26T13:15:10.000Z</time>
      </trkpt>
      <trkpt lat="43.64162" lon="3.29166">
        <ele>226</ele>
        <time>2026-03-26T13:16:43.000Z</time>
      </trkpt>
      <trkpt lat="43.64163" lon="3.29191">
        <ele>227</ele>
        <time>2026-03-26T13:17:03.000Z</time>
      </trkpt>
      <trkpt lat="43.6416" lon="3.29215">
        <ele>226</ele>
        <time>2026-03-26T13:17:20.000Z</time>
      </trkpt>
      <trkpt lat="43.64161" lon="3.29241">
        <ele>227</ele>
        <time>2026-03-26T13:17:40.000Z</time>
      </trkpt>
      <trkpt lat="43.64164" lon="3.29267">
        <ele>227</ele>
        <time>2026-03-26T13:18:01.000Z</time>
      </trkpt>
      <trkpt lat="43.64165" lon="3.29294">
        <ele>226</ele>
        <time>2026-03-26T13:18:16.000Z</time>
      </trkpt>
      <trkpt lat="43.64167" lon="3.2932">
        <ele>225</ele>
        <time>2026-03-26T13:18:31.000Z</time>
      </trkpt>
      <trkpt lat="43.64169" lon="3.29347">
        <ele>223</ele>
        <time>2026-03-26T13:18:48.000Z</time>
      </trkpt>
      <trkpt lat="43.64167" lon="3.29373">
        <ele>222</ele>
        <time>2026-03-26T13:19:04.000Z</time>
      </trkpt>
      <trkpt lat="43.64167" lon="3.294">
        <ele>221</ele>
        <time>2026-03-26T13:19:19.000Z</time>
      </trkpt>
      <trkpt lat="43.64172" lon="3.29424">
        <ele>219</ele>
        <time>2026-03-26T13:19:33.000Z</time>
      </trkpt>
      <trkpt lat="43.64177" lon="3.29448">
        <ele>218</ele>
        <time>2026-03-26T13:19:47.000Z</time>
      </trkpt>
      <trkpt lat="43.64184" lon="3.29473">
        <ele>218</ele>
        <time>2026-03-26T13:20:03.000Z</time>
      </trkpt>
      <trkpt lat="43.64192" lon="3.29496">
        <ele>218</ele>
        <time>2026-03-26T13:20:19.000Z</time>
      </trkpt>
      <trkpt lat="43.64197" lon="3.29523">
        <ele>217</ele>
        <time>2026-03-26T13:20:43.000Z</time>
      </trkpt>
      <trkpt lat="43.64197" lon="3.29548">
        <ele>216</ele>
        <time>2026-03-26T13:20:58.000Z</time>
      </trkpt>
      <trkpt lat="43.64197" lon="3.29574">
        <ele>214</ele>
        <time>2026-03-26T13:21:15.000Z</time>
      </trkpt>
      <trkpt lat="43.64199" lon="3.29599">
        <ele>212</ele>
        <time>2026-03-26T13:21:28.000Z</time>
      </trkpt>
      <trkpt lat="43.64202" lon="3.29624">
        <ele>212</ele>
        <time>2026-03-26T13:21:42.000Z</time>
      </trkpt>
      <trkpt lat="43.64204" lon="3.29649">
        <ele>210</ele>
        <time>2026-03-26T13:21:57.000Z</time>
      </trkpt>
      <trkpt lat="43.64205" lon="3.29675">
        <ele>209</ele>
        <time>2026-03-26T13:22:13.000Z</time>
      </trkpt>
      <trkpt lat="43.64204" lon="3.297">
        <ele>207</ele>
        <time>2026-03-26T13:22:28.000Z</time>
      </trkpt>
      <trkpt lat="43.64203" lon="3.29723">
        <ele>207</ele>
        <time>2026-03-26T13:22:42.000Z</time>
      </trkpt>
      <trkpt lat="43.64213" lon="3.29741">
        <ele>207</ele>
        <time>2026-03-26T13:23:48.000Z</time>
      </trkpt>
      <trkpt lat="43.64216" lon="3.29765">
        <ele>206</ele>
        <time>2026-03-26T13:24:03.000Z</time>
      </trkpt>
      <trkpt lat="43.64215" lon="3.29793">
        <ele>206</ele>
        <time>2026-03-26T13:24:20.000Z</time>
      </trkpt>
      <trkpt lat="43.64217" lon="3.29821">
        <ele>205</ele>
        <time>2026-03-26T13:24:39.000Z</time>
      </trkpt>
      <trkpt lat="43.6422" lon="3.29848">
        <ele>205</ele>
        <time>2026-03-26T13:24:57.000Z</time>
      </trkpt>
      <trkpt lat="43.64218" lon="3.29875">
        <ele>204</ele>
        <time>2026-03-26T13:25:12.000Z</time>
      </trkpt>
      <trkpt lat="43.64219" lon="3.299">
        <ele>203</ele>
        <time>2026-03-26T13:25:26.000Z</time>
      </trkpt>
      <trkpt lat="43.64224" lon="3.29925">
        <ele>202</ele>
        <time>2026-03-26T13:25:41.000Z</time>
      </trkpt>
      <trkpt lat="43.64227" lon="3.2995">
        <ele>202</ele>
        <time>2026-03-26T13:25:56.000Z</time>
      </trkpt>
      <trkpt lat="43.6423" lon="3.29975">
        <ele>201</ele>
        <time>2026-03-26T13:26:12.000Z</time>
      </trkpt>
      <trkpt lat="43.64232" lon="3.30001">
        <ele>201</ele>
        <time>2026-03-26T13:26:27.000Z</time>
      </trkpt>
      <trkpt lat="43.64234" lon="3.30026">
        <ele>200</ele>
        <time>2026-03-26T13:26:42.000Z</time>
      </trkpt>
      <trkpt lat="43.64234" lon="3.30053">
        <ele>200</ele>
        <time>2026-03-26T13:26:58.000Z</time>
      </trkpt>
      <trkpt lat="43.64233" lon="3.30078">
        <ele>199</ele>
        <time>2026-03-26T13:27:13.000Z</time>
      </trkpt>
      <trkpt lat="43.64226" lon="3.30102">
        <ele>199</ele>
        <time>2026-03-26T13:27:28.000Z</time>
      </trkpt>
      <trkpt lat="43.64222" lon="3.30126">
        <ele>198</ele>
        <time>2026-03-26T13:27:42.000Z</time>
      </trkpt>
      <trkpt lat="43.64218" lon="3.30151">
        <ele>197</ele>
        <time>2026-03-26T13:27:58.000Z</time>
      </trkpt>
      <trkpt lat="43.64214" lon="3.30177">
        <ele>197</ele>
        <time>2026-03-26T13:28:13.000Z</time>
      </trkpt>
      <trkpt lat="43.64212" lon="3.30204">
        <ele>196</ele>
        <time>2026-03-26T13:28:28.000Z</time>
      </trkpt>
      <trkpt lat="43.64211" lon="3.30229">
        <ele>195</ele>
        <time>2026-03-26T13:28:43.000Z</time>
      </trkpt>
      <trkpt lat="43.6421" lon="3.30254">
        <ele>194</ele>
        <time>2026-03-26T13:28:57.000Z</time>
      </trkpt>
      <trkpt lat="43.64213" lon="3.3028">
        <ele>193</ele>
        <time>2026-03-26T13:29:11.000Z</time>
      </trkpt>
      <trkpt lat="43.64217" lon="3.30305">
        <ele>192</ele>
        <time>2026-03-26T13:29:26.000Z</time>
      </trkpt>
      <trkpt lat="43.64222" lon="3.30328">
        <ele>192</ele>
        <time>2026-03-26T13:29:41.000Z</time>
      </trkpt>
      <trkpt lat="43.64222" lon="3.30353">
        <ele>189</ele>
        <time>2026-03-26T13:29:57.000Z</time>
      </trkpt>
      <trkpt lat="43.64218" lon="3.30379">
        <ele>188</ele>
        <time>2026-03-26T13:30:14.000Z</time>
      </trkpt>
      <trkpt lat="43.6422" lon="3.30405">
        <ele>186</ele>
        <time>2026-03-26T13:30:30.000Z</time>
      </trkpt>
      <trkpt lat="43.64221" lon="3.30433">
        <ele>185</ele>
        <time>2026-03-26T13:30:47.000Z</time>
      </trkpt>
      <trkpt lat="43.64223" lon="3.3046">
        <ele>184</ele>
        <time>2026-03-26T13:31:03.000Z</time>
      </trkpt>
      <trkpt lat="43.64228" lon="3.30485">
        <ele>182</ele>
        <time>2026-03-26T13:31:17.000Z</time>
      </trkpt>
      <trkpt lat="43.64233" lon="3.3051">
        <ele>180</ele>
        <time>2026-03-26T13:31:34.000Z</time>
      </trkpt>
      <trkpt lat="43.64237" lon="3.30535">
        <ele>178</ele>
        <time>2026-03-26T13:31:48.000Z</time>
      </trkpt>
      <trkpt lat="43.6424" lon="3.3056">
        <ele>176</ele>
        <time>2026-03-26T13:32:04.000Z</time>
      </trkpt>
      <trkpt lat="43.64238" lon="3.30585">
        <ele>175</ele>
        <time>2026-03-26T13:32:24.000Z</time>
      </trkpt>
      <trkpt lat="43.6424" lon="3.30613">
        <ele>174</ele>
        <time>2026-03-26T13:32:40.000Z</time>
      </trkpt>
      <trkpt lat="43.64244" lon="3.30638">
        <ele>173</ele>
        <time>2026-03-26T13:32:57.000Z</time>
      </trkpt>
      <trkpt lat="43.64247" lon="3.30663">
        <ele>172</ele>
        <time>2026-03-26T13:33:12.000Z</time>
      </trkpt>
      <trkpt lat="43.64245" lon="3.30689">
        <ele>172</ele>
        <time>2026-03-26T13:34:57.000Z</time>
      </trkpt>
      <trkpt lat="43.64241" lon="3.30715">
        <ele>172</ele>
        <time>2026-03-26T13:35:13.000Z</time>
      </trkpt>
      <trkpt lat="43.6424" lon="3.3074">
        <ele>172</ele>
        <time>2026-03-26T13:35:28.000Z</time>
      </trkpt>
      <trkpt lat="43.64244" lon="3.30765">
        <ele>171</ele>
        <time>2026-03-26T13:35:43.000Z</time>
      </trkpt>
      <trkpt lat="43.6425" lon="3.3079">
        <ele>169</ele>
        <time>2026-03-26T13:35:58.000Z</time>
      </trkpt>
      <trkpt lat="43.6426" lon="3.30814">
        <ele>168</ele>
        <time>2026-03-26T13:36:14.000Z</time>
      </trkpt>
      <trkpt lat="43.64274" lon="3.30831">
        <ele>166</ele>
        <time>2026-03-26T13:36:29.000Z</time>
      </trkpt>
      <trkpt lat="43.64291" lon="3.30842">
        <ele>165</ele>
        <time>2026-03-26T13:36:44.000Z</time>
      </trkpt>
      <trkpt lat="43.64308" lon="3.30849">
        <ele>163</ele>
        <time>2026-03-26T13:36:58.000Z</time>
      </trkpt>
      <trkpt lat="43.64326" lon="3.30853">
        <ele>163</ele>
        <time>2026-03-26T13:37:13.000Z</time>
      </trkpt>
      <trkpt lat="43.64345" lon="3.30857">
        <ele>161</ele>
        <time>2026-03-26T13:37:28.000Z</time>
      </trkpt>
      <trkpt lat="43.64364" lon="3.30857">
        <ele>161</ele>
        <time>2026-03-26T13:37:43.000Z</time>
      </trkpt>
      <trkpt lat="43.64383" lon="3.30856">
        <ele>161</ele>
        <time>2026-03-26T13:37:58.000Z</time>
      </trkpt>
      <trkpt lat="43.64401" lon="3.30859">
        <ele>161</ele>
        <time>2026-03-26T13:38:14.000Z</time>
      </trkpt>
      <trkpt lat="43.6442" lon="3.30857">
        <ele>161</ele>
        <time>2026-03-26T13:38:29.000Z</time>
      </trkpt>
      <trkpt lat="43.64439" lon="3.30855">
        <ele>161</ele>
        <time>2026-03-26T13:38:46.000Z</time>
      </trkpt>
      <trkpt lat="43.64457" lon="3.30851">
        <ele>162</ele>
        <time>2026-03-26T13:39:02.000Z</time>
      </trkpt>
      <trkpt lat="43.64476" lon="3.30847">
        <ele>161</ele>
        <time>2026-03-26T13:40:55.000Z</time>
      </trkpt>
      <trkpt lat="43.64495" lon="3.30841">
        <ele>161</ele>
        <time>2026-03-26T13:41:09.000Z</time>
      </trkpt>
      <trkpt lat="43.64513" lon="3.30842">
        <ele>161</ele>
        <time>2026-03-26T13:41:25.000Z</time>
      </trkpt>
      <trkpt lat="43.64533" lon="3.30845">
        <ele>162</ele>
        <time>2026-03-26T13:41:42.000Z</time>
      </trkpt>
      <trkpt lat="43.64552" lon="3.30846">
        <ele>162</ele>
        <time>2026-03-26T13:41:57.000Z</time>
      </trkpt>
      <trkpt lat="43.64571" lon="3.30843">
        <ele>163</ele>
        <time>2026-03-26T13:42:13.000Z</time>
      </trkpt>
      <trkpt lat="43.64588" lon="3.30835">
        <ele>163</ele>
        <time>2026-03-26T13:42:31.000Z</time>
      </trkpt>
      <trkpt lat="43.64604" lon="3.30821">
        <ele>164</ele>
        <time>2026-03-26T13:42:57.000Z</time>
      </trkpt>
      <trkpt lat="43.6462" lon="3.30808">
        <ele>165</ele>
        <time>2026-03-26T13:43:13.000Z</time>
      </trkpt>
      <trkpt lat="43.64636" lon="3.30794">
        <ele>165</ele>
        <time>2026-03-26T13:43:30.000Z</time>
      </trkpt>
      <trkpt lat="43.64653" lon="3.3078">
        <ele>166</ele>
        <time>2026-03-26T13:43:49.000Z</time>
      </trkpt>
      <trkpt lat="43.64669" lon="3.30768">
        <ele>167</ele>
        <time>2026-03-26T13:44:07.000Z</time>
      </trkpt>
      <trkpt lat="43.64686" lon="3.30758">
        <ele>167</ele>
        <time>2026-03-26T13:44:21.000Z</time>
      </trkpt>
      <trkpt lat="43.64703" lon="3.30748">
        <ele>167</ele>
        <time>2026-03-26T13:44:38.000Z</time>
      </trkpt>
      <trkpt lat="43.64721" lon="3.30741">
        <ele>167</ele>
        <time>2026-03-26T13:44:56.000Z</time>
      </trkpt>
      <trkpt lat="43.64741" lon="3.30736">
        <ele>168</ele>
        <time>2026-03-26T13:45:16.000Z</time>
      </trkpt>
      <trkpt lat="43.6476" lon="3.30726">
        <ele>168</ele>
        <time>2026-03-26T13:45:32.000Z</time>
      </trkpt>
      <trkpt lat="43.64777" lon="3.30713">
        <ele>170</ele>
        <time>2026-03-26T13:45:50.000Z</time>
      </trkpt>
      <trkpt lat="43.64792" lon="3.30699">
        <ele>170</ele>
        <time>2026-03-26T13:46:06.000Z</time>
      </trkpt>
      <trkpt lat="43.64807" lon="3.30684">
        <ele>171</ele>
        <time>2026-03-26T13:46:22.000Z</time>
      </trkpt>
      <trkpt lat="43.64821" lon="3.30667">
        <ele>171</ele>
        <time>2026-03-26T13:46:37.000Z</time>
      </trkpt>
      <trkpt lat="43.64834" lon="3.30648">
        <ele>172</ele>
        <time>2026-03-26T13:46:53.000Z</time>
      </trkpt>
      <trkpt lat="43.64848" lon="3.3063">
        <ele>172</ele>
        <time>2026-03-26T13:47:09.000Z</time>
      </trkpt>
      <trkpt lat="43.64864" lon="3.30615">
        <ele>172</ele>
        <time>2026-03-26T13:47:26.000Z</time>
      </trkpt>
      <trkpt lat="43.64879" lon="3.30601">
        <ele>173</ele>
        <time>2026-03-26T13:47:42.000Z</time>
      </trkpt>
      <trkpt lat="43.64894" lon="3.30586">
        <ele>174</ele>
        <time>2026-03-26T13:48:07.000Z</time>
      </trkpt>
      <trkpt lat="43.6491" lon="3.30575">
        <ele>174</ele>
        <time>2026-03-26T13:48:21.000Z</time>
      </trkpt>
      <trkpt lat="43.64927" lon="3.30564">
        <ele>175</ele>
        <time>2026-03-26T13:48:37.000Z</time>
      </trkpt>
      <trkpt lat="43.64945" lon="3.30551">
        <ele>176</ele>
        <time>2026-03-26T13:48:54.000Z</time>
      </trkpt>
      <trkpt lat="43.64962" lon="3.30545">
        <ele>176</ele>
        <time>2026-03-26T13:49:11.000Z</time>
      </trkpt>
      <trkpt lat="43.64979" lon="3.30546">
        <ele>177</ele>
        <time>2026-03-26T13:49:27.000Z</time>
      </trkpt>
      <trkpt lat="43.64997" lon="3.30543">
        <ele>177</ele>
        <time>2026-03-26T13:49:45.000Z</time>
      </trkpt>
      <trkpt lat="43.65016" lon="3.30541">
        <ele>177</ele>
        <time>2026-03-26T13:50:07.000Z</time>
      </trkpt>
      <trkpt lat="43.65034" lon="3.30539">
        <ele>178</ele>
        <time>2026-03-26T13:50:24.000Z</time>
      </trkpt>
      <trkpt lat="43.65053" lon="3.30532">
        <ele>178</ele>
        <time>2026-03-26T13:50:45.000Z</time>
      </trkpt>
      <trkpt lat="43.65072" lon="3.30528">
        <ele>179</ele>
        <time>2026-03-26T13:51:01.000Z</time>
      </trkpt>
      <trkpt lat="43.65091" lon="3.30525">
        <ele>179</ele>
        <time>2026-03-26T13:51:19.000Z</time>
      </trkpt>
      <trkpt lat="43.65108" lon="3.30529">
        <ele>180</ele>
        <time>2026-03-26T13:51:38.000Z</time>
      </trkpt>
      <trkpt lat="43.65125" lon="3.30536">
        <ele>180</ele>
        <time>2026-03-26T13:52:00.000Z</time>
      </trkpt>
      <trkpt lat="43.65137" lon="3.30555">
        <ele>181</ele>
        <time>2026-03-26T13:52:25.000Z</time>
      </trkpt>
      <trkpt lat="43.65146" lon="3.30575">
        <ele>183</ele>
        <time>2026-03-26T13:52:47.000Z</time>
      </trkpt>
      <trkpt lat="43.65162" lon="3.30575">
        <ele>184</ele>
        <time>2026-03-26T13:53:26.000Z</time>
      </trkpt>
      <trkpt lat="43.65181" lon="3.30568">
        <ele>184</ele>
        <time>2026-03-26T13:53:41.000Z</time>
      </trkpt>
      <trkpt lat="43.65199" lon="3.30558">
        <ele>185</ele>
        <time>2026-03-26T13:53:57.000Z</time>
      </trkpt>
      <trkpt lat="43.65215" lon="3.3055">
        <ele>184</ele>
        <time>2026-03-26T13:54:13.000Z</time>
      </trkpt>
      <trkpt lat="43.65229" lon="3.30534">
        <ele>184</ele>
        <time>2026-03-26T13:54:29.000Z</time>
      </trkpt>
      <trkpt lat="43.65243" lon="3.30517">
        <ele>184</ele>
        <time>2026-03-26T13:54:45.000Z</time>
      </trkpt>
      <trkpt lat="43.65257" lon="3.305">
        <ele>184</ele>
        <time>2026-03-26T13:55:00.000Z</time>
      </trkpt>
      <trkpt lat="43.65273" lon="3.30484">
        <ele>184</ele>
        <time>2026-03-26T13:55:16.000Z</time>
      </trkpt>
      <trkpt lat="43.65287" lon="3.30469">
        <ele>185</ele>
        <time>2026-03-26T13:55:31.000Z</time>
      </trkpt>
      <trkpt lat="43.65301" lon="3.30455">
        <ele>185</ele>
        <time>2026-03-26T13:55:46.000Z</time>
      </trkpt>
      <trkpt lat="43.65316" lon="3.30438">
        <ele>185</ele>
        <time>2026-03-26T13:56:02.000Z</time>
      </trkpt>
      <trkpt lat="43.6533" lon="3.30421">
        <ele>185</ele>
        <time>2026-03-26T13:56:19.000Z</time>
      </trkpt>
      <trkpt lat="43.65346" lon="3.30407">
        <ele>186</ele>
        <time>2026-03-26T13:56:37.000Z</time>
      </trkpt>
      <trkpt lat="43.65361" lon="3.3039">
        <ele>188</ele>
        <time>2026-03-26T13:56:53.000Z</time>
      </trkpt>
      <trkpt lat="43.65378" lon="3.30377">
        <ele>188</ele>
        <time>2026-03-26T13:57:11.000Z</time>
      </trkpt>
      <trkpt lat="43.65394" lon="3.30386">
        <ele>188</ele>
        <time>2026-03-26T13:57:34.000Z</time>
        <extensions>
          <visugpx:TrkExtension xmlns:visugpx="https://www.visugpx.com/editgpx/">
            <visugpx:node>1</visugpx:node>
            </visugpx:TrkExtension>
        </extensions>
      </trkpt>
    </trkseg>
  </trk>
</gpx>